<?xml version="1.0" encoding="UTF-8" standalone="no" ?>
<gpx xmlns="http://www.topografix.com/GPX/1/1" xmlns:xsi="http://www.w3.org/2001/XMLSchema-instance" xsi:schemaLocation="http://www.topografix.com/GPX/1/1 http://www.topografix.com/GPX/1/1/gpx.xsd" version="1.1" creator="VisuGPX - https://www.visugpx.com">
  <metadata>
    <name>vire archiane</name>
  </metadata>
  <trk>
    <name><![CDATA[vire archiane]]></name>
    <trkseg>
      <trkpt lat="44.74586" lon="5.50434">
        <ele>759</ele>
        <time>2020-07-12T17:41:51+02:00</time>
      </trkpt>
      <trkpt lat="44.74622" lon="5.50427">
        <ele>770</ele>
        <time>2020-07-12T17:41:56+02:00</time>
      </trkpt>
      <trkpt lat="44.74628" lon="5.50422">
        <ele>771</ele>
        <time>2020-07-12T17:42:01+02:00</time>
      </trkpt>
      <trkpt lat="44.74632" lon="5.5042">
        <ele>772</ele>
        <time>2020-07-12T17:42:06+02:00</time>
      </trkpt>
      <trkpt lat="44.74637" lon="5.5042">
        <ele>774</ele>
        <time>2020-07-12T17:42:11+02:00</time>
      </trkpt>
      <trkpt lat="44.7464" lon="5.50425">
        <ele>774</ele>
        <time>2020-07-12T17:42:16+02:00</time>
      </trkpt>
      <trkpt lat="44.74643" lon="5.50431">
        <ele>775</ele>
        <time>2020-07-12T17:42:21+02:00</time>
      </trkpt>
      <trkpt lat="44.74645" lon="5.50436">
        <ele>776</ele>
        <time>2020-07-12T17:42:26+02:00</time>
      </trkpt>
      <trkpt lat="44.74646" lon="5.50444">
        <ele>776</ele>
        <time>2020-07-12T17:42:31+02:00</time>
      </trkpt>
      <trkpt lat="44.74648" lon="5.50448">
        <ele>776</ele>
        <time>2020-07-12T17:42:36+02:00</time>
      </trkpt>
      <trkpt lat="44.74654" lon="5.50453">
        <ele>777</ele>
        <time>2020-07-12T17:42:41+02:00</time>
      </trkpt>
      <trkpt lat="44.74659" lon="5.50458">
        <ele>777</ele>
        <time>2020-07-12T17:42:46+02:00</time>
      </trkpt>
      <trkpt lat="44.74664" lon="5.50461">
        <ele>777</ele>
        <time>2020-07-12T17:42:51+02:00</time>
      </trkpt>
      <trkpt lat="44.7467" lon="5.50464">
        <ele>778</ele>
        <time>2020-07-12T17:42:56+02:00</time>
      </trkpt>
      <trkpt lat="44.74675" lon="5.50467">
        <ele>778</ele>
        <time>2020-07-12T17:43:01+02:00</time>
      </trkpt>
      <trkpt lat="44.74682" lon="5.50472">
        <ele>778</ele>
        <time>2020-07-12T17:43:06+02:00</time>
      </trkpt>
      <trkpt lat="44.74685" lon="5.50477">
        <ele>778</ele>
        <time>2020-07-12T17:43:11+02:00</time>
      </trkpt>
      <trkpt lat="44.74685" lon="5.50481">
        <ele>777</ele>
        <time>2020-07-12T17:43:16+02:00</time>
      </trkpt>
      <trkpt lat="44.74684" lon="5.50489">
        <ele>776</ele>
        <time>2020-07-12T17:43:21+02:00</time>
      </trkpt>
      <trkpt lat="44.74681" lon="5.50496">
        <ele>774</ele>
        <time>2020-07-12T17:43:26+02:00</time>
      </trkpt>
      <trkpt lat="44.74678" lon="5.50502">
        <ele>773</ele>
        <time>2020-07-12T17:43:31+02:00</time>
      </trkpt>
      <trkpt lat="44.74675" lon="5.50506">
        <ele>773</ele>
        <time>2020-07-12T17:43:36+02:00</time>
      </trkpt>
      <trkpt lat="44.74671" lon="5.50511">
        <ele>772</ele>
        <time>2020-07-12T17:43:41+02:00</time>
      </trkpt>
      <trkpt lat="44.74667" lon="5.50522">
        <ele>770</ele>
        <time>2020-07-12T17:43:46+02:00</time>
      </trkpt>
      <trkpt lat="44.74666" lon="5.50526">
        <ele>770</ele>
        <time>2020-07-12T17:43:51+02:00</time>
      </trkpt>
      <trkpt lat="44.74664" lon="5.50533">
        <ele>770</ele>
        <time>2020-07-12T17:43:56+02:00</time>
      </trkpt>
      <trkpt lat="44.74662" lon="5.50535">
        <ele>770</ele>
        <time>2020-07-12T17:44:01+02:00</time>
      </trkpt>
      <trkpt lat="44.74662" lon="5.50544">
        <ele>771</ele>
        <time>2020-07-12T17:44:06+02:00</time>
      </trkpt>
      <trkpt lat="44.74662" lon="5.50549">
        <ele>771</ele>
        <time>2020-07-12T17:44:11+02:00</time>
      </trkpt>
      <trkpt lat="44.74662" lon="5.50555">
        <ele>772</ele>
        <time>2020-07-12T17:44:16+02:00</time>
      </trkpt>
      <trkpt lat="44.74664" lon="5.50561">
        <ele>774</ele>
        <time>2020-07-12T17:44:21+02:00</time>
      </trkpt>
      <trkpt lat="44.74665" lon="5.50568">
        <ele>775</ele>
        <time>2020-07-12T17:44:26+02:00</time>
      </trkpt>
      <trkpt lat="44.74669" lon="5.50579">
        <ele>777</ele>
        <time>2020-07-12T17:44:31+02:00</time>
      </trkpt>
      <trkpt lat="44.74669" lon="5.50587">
        <ele>777</ele>
        <time>2020-07-12T17:44:36+02:00</time>
      </trkpt>
      <trkpt lat="44.74669" lon="5.50592">
        <ele>776</ele>
        <time>2020-07-12T17:44:41+02:00</time>
      </trkpt>
      <trkpt lat="44.74671" lon="5.50598">
        <ele>777</ele>
        <time>2020-07-12T17:44:46+02:00</time>
      </trkpt>
      <trkpt lat="44.74672" lon="5.50604">
        <ele>777</ele>
        <time>2020-07-12T17:44:51+02:00</time>
      </trkpt>
      <trkpt lat="44.74674" lon="5.50612">
        <ele>777</ele>
        <time>2020-07-12T17:44:56+02:00</time>
      </trkpt>
      <trkpt lat="44.74676" lon="5.50618">
        <ele>778</ele>
        <time>2020-07-12T17:45:01+02:00</time>
      </trkpt>
      <trkpt lat="44.74678" lon="5.50623">
        <ele>778</ele>
        <time>2020-07-12T17:45:06+02:00</time>
      </trkpt>
      <trkpt lat="44.7468" lon="5.50629">
        <ele>780</ele>
        <time>2020-07-12T17:45:11+02:00</time>
      </trkpt>
      <trkpt lat="44.74683" lon="5.50633">
        <ele>781</ele>
        <time>2020-07-12T17:45:16+02:00</time>
      </trkpt>
      <trkpt lat="44.74687" lon="5.50638">
        <ele>783</ele>
        <time>2020-07-12T17:45:21+02:00</time>
      </trkpt>
      <trkpt lat="44.74691" lon="5.50642">
        <ele>785</ele>
        <time>2020-07-12T17:45:26+02:00</time>
      </trkpt>
      <trkpt lat="44.74695" lon="5.50645">
        <ele>786</ele>
        <time>2020-07-12T17:45:31+02:00</time>
      </trkpt>
      <trkpt lat="44.74698" lon="5.50653">
        <ele>787</ele>
        <time>2020-07-12T17:45:36+02:00</time>
      </trkpt>
      <trkpt lat="44.74701" lon="5.50659">
        <ele>787</ele>
        <time>2020-07-12T17:45:41+02:00</time>
      </trkpt>
      <trkpt lat="44.74705" lon="5.50666">
        <ele>787</ele>
        <time>2020-07-12T17:45:46+02:00</time>
      </trkpt>
      <trkpt lat="44.74704" lon="5.50673">
        <ele>787</ele>
        <time>2020-07-12T17:45:51+02:00</time>
      </trkpt>
      <trkpt lat="44.74704" lon="5.50678">
        <ele>787</ele>
        <time>2020-07-12T17:45:56+02:00</time>
      </trkpt>
      <trkpt lat="44.74705" lon="5.50685">
        <ele>787</ele>
        <time>2020-07-12T17:46:01+02:00</time>
      </trkpt>
      <trkpt lat="44.74706" lon="5.50697">
        <ele>787</ele>
        <time>2020-07-12T17:46:06+02:00</time>
      </trkpt>
      <trkpt lat="44.74707" lon="5.5071">
        <ele>789</ele>
        <time>2020-07-12T17:46:11+02:00</time>
      </trkpt>
      <trkpt lat="44.74707" lon="5.50713">
        <ele>789</ele>
        <time>2020-07-12T17:46:16+02:00</time>
      </trkpt>
      <trkpt lat="44.74708" lon="5.50718">
        <ele>790</ele>
        <time>2020-07-12T17:46:21+02:00</time>
      </trkpt>
      <trkpt lat="44.74711" lon="5.50728">
        <ele>792</ele>
        <time>2020-07-12T17:46:26+02:00</time>
      </trkpt>
      <trkpt lat="44.74713" lon="5.50735">
        <ele>793</ele>
        <time>2020-07-12T17:46:31+02:00</time>
      </trkpt>
      <trkpt lat="44.74715" lon="5.50742">
        <ele>794</ele>
        <time>2020-07-12T17:46:36+02:00</time>
      </trkpt>
      <trkpt lat="44.74719" lon="5.50749">
        <ele>796</ele>
        <time>2020-07-12T17:46:41+02:00</time>
      </trkpt>
      <trkpt lat="44.74721" lon="5.50753">
        <ele>797</ele>
        <time>2020-07-12T17:46:46+02:00</time>
      </trkpt>
      <trkpt lat="44.74726" lon="5.50756">
        <ele>799</ele>
        <time>2020-07-12T17:46:51+02:00</time>
      </trkpt>
      <trkpt lat="44.74731" lon="5.50757">
        <ele>801</ele>
        <time>2020-07-12T17:46:56+02:00</time>
      </trkpt>
      <trkpt lat="44.74737" lon="5.50759">
        <ele>803</ele>
        <time>2020-07-12T17:47:01+02:00</time>
      </trkpt>
      <trkpt lat="44.74744" lon="5.50762">
        <ele>805</ele>
        <time>2020-07-12T17:47:06+02:00</time>
      </trkpt>
      <trkpt lat="44.74746" lon="5.50765">
        <ele>805</ele>
        <time>2020-07-12T17:47:11+02:00</time>
      </trkpt>
      <trkpt lat="44.74756" lon="5.50775">
        <ele>805</ele>
        <time>2020-07-12T17:47:16+02:00</time>
      </trkpt>
      <trkpt lat="44.74761" lon="5.5078">
        <ele>806</ele>
        <time>2020-07-12T17:47:21+02:00</time>
      </trkpt>
      <trkpt lat="44.74766" lon="5.50784">
        <ele>808</ele>
        <time>2020-07-12T17:47:26+02:00</time>
      </trkpt>
      <trkpt lat="44.74771" lon="5.50785">
        <ele>809</ele>
        <time>2020-07-12T17:47:31+02:00</time>
      </trkpt>
      <trkpt lat="44.74775" lon="5.50786">
        <ele>810</ele>
        <time>2020-07-12T17:47:36+02:00</time>
      </trkpt>
      <trkpt lat="44.74783" lon="5.50787">
        <ele>812</ele>
        <time>2020-07-12T17:47:41+02:00</time>
      </trkpt>
      <trkpt lat="44.74786" lon="5.50788">
        <ele>813</ele>
        <time>2020-07-12T17:47:46+02:00</time>
      </trkpt>
      <trkpt lat="44.74793" lon="5.50789">
        <ele>814</ele>
        <time>2020-07-12T17:47:51+02:00</time>
      </trkpt>
      <trkpt lat="44.74798" lon="5.50789">
        <ele>815</ele>
        <time>2020-07-12T17:47:56+02:00</time>
      </trkpt>
      <trkpt lat="44.748" lon="5.50789">
        <ele>815</ele>
        <time>2020-07-12T17:48:01+02:00</time>
      </trkpt>
      <trkpt lat="44.74805" lon="5.5079">
        <ele>816</ele>
        <time>2020-07-12T17:48:06+02:00</time>
      </trkpt>
      <trkpt lat="44.74812" lon="5.50791">
        <ele>818</ele>
        <time>2020-07-12T17:48:11+02:00</time>
      </trkpt>
      <trkpt lat="44.74817" lon="5.50792">
        <ele>819</ele>
        <time>2020-07-12T17:48:16+02:00</time>
      </trkpt>
      <trkpt lat="44.74823" lon="5.5079">
        <ele>820</ele>
        <time>2020-07-12T17:48:21+02:00</time>
      </trkpt>
      <trkpt lat="44.74828" lon="5.5079">
        <ele>822</ele>
        <time>2020-07-12T17:48:26+02:00</time>
      </trkpt>
      <trkpt lat="44.74832" lon="5.50789">
        <ele>823</ele>
        <time>2020-07-12T17:48:31+02:00</time>
      </trkpt>
      <trkpt lat="44.74838" lon="5.5079">
        <ele>825</ele>
        <time>2020-07-12T17:48:36+02:00</time>
      </trkpt>
      <trkpt lat="44.74842" lon="5.50789">
        <ele>826</ele>
        <time>2020-07-12T17:48:41+02:00</time>
      </trkpt>
      <trkpt lat="44.74846" lon="5.50788">
        <ele>828</ele>
        <time>2020-07-12T17:48:46+02:00</time>
      </trkpt>
      <trkpt lat="44.7485" lon="5.50788">
        <ele>830</ele>
        <time>2020-07-12T17:48:51+02:00</time>
      </trkpt>
      <trkpt lat="44.74859" lon="5.50789">
        <ele>833</ele>
        <time>2020-07-12T17:48:56+02:00</time>
      </trkpt>
      <trkpt lat="44.74863" lon="5.5079">
        <ele>834</ele>
        <time>2020-07-12T17:49:01+02:00</time>
      </trkpt>
      <trkpt lat="44.74883" lon="5.50796">
        <ele>839</ele>
        <time>2020-07-12T17:49:06+02:00</time>
      </trkpt>
      <trkpt lat="44.74887" lon="5.50796">
        <ele>840</ele>
        <time>2020-07-12T17:49:11+02:00</time>
      </trkpt>
      <trkpt lat="44.74892" lon="5.50796">
        <ele>842</ele>
        <time>2020-07-12T17:49:16+02:00</time>
      </trkpt>
      <trkpt lat="44.74897" lon="5.50797">
        <ele>843</ele>
        <time>2020-07-12T17:49:21+02:00</time>
      </trkpt>
      <trkpt lat="44.74902" lon="5.50798">
        <ele>845</ele>
        <time>2020-07-12T17:49:26+02:00</time>
      </trkpt>
      <trkpt lat="44.74906" lon="5.50798">
        <ele>846</ele>
        <time>2020-07-12T17:49:31+02:00</time>
      </trkpt>
      <trkpt lat="44.7491" lon="5.50798">
        <ele>847</ele>
        <time>2020-07-12T17:49:36+02:00</time>
      </trkpt>
      <trkpt lat="44.74913" lon="5.50794">
        <ele>849</ele>
        <time>2020-07-12T17:49:41+02:00</time>
      </trkpt>
      <trkpt lat="44.74916" lon="5.50792">
        <ele>850</ele>
        <time>2020-07-12T17:49:46+02:00</time>
      </trkpt>
      <trkpt lat="44.74919" lon="5.50789">
        <ele>851</ele>
        <time>2020-07-12T17:49:51+02:00</time>
      </trkpt>
      <trkpt lat="44.74922" lon="5.50787">
        <ele>852</ele>
        <time>2020-07-12T17:49:56+02:00</time>
      </trkpt>
      <trkpt lat="44.74926" lon="5.50785">
        <ele>854</ele>
        <time>2020-07-12T17:50:01+02:00</time>
      </trkpt>
      <trkpt lat="44.7493" lon="5.50782">
        <ele>855</ele>
        <time>2020-07-12T17:50:06+02:00</time>
      </trkpt>
      <trkpt lat="44.74937" lon="5.50781">
        <ele>856</ele>
        <time>2020-07-12T17:50:11+02:00</time>
      </trkpt>
      <trkpt lat="44.74941" lon="5.50783">
        <ele>857</ele>
        <time>2020-07-12T17:50:16+02:00</time>
      </trkpt>
      <trkpt lat="44.74942" lon="5.50788">
        <ele>857</ele>
        <time>2020-07-12T17:50:21+02:00</time>
      </trkpt>
      <trkpt lat="44.74943" lon="5.50793">
        <ele>857</ele>
        <time>2020-07-12T17:50:26+02:00</time>
      </trkpt>
      <trkpt lat="44.74943" lon="5.50798">
        <ele>856</ele>
        <time>2020-07-12T17:50:31+02:00</time>
      </trkpt>
      <trkpt lat="44.74944" lon="5.50806">
        <ele>856</ele>
        <time>2020-07-12T17:50:36+02:00</time>
      </trkpt>
      <trkpt lat="44.74944" lon="5.50811">
        <ele>856</ele>
        <time>2020-07-12T17:50:41+02:00</time>
      </trkpt>
      <trkpt lat="44.74944" lon="5.50817">
        <ele>857</ele>
        <time>2020-07-12T17:50:46+02:00</time>
      </trkpt>
      <trkpt lat="44.74943" lon="5.50821">
        <ele>857</ele>
        <time>2020-07-12T17:50:51+02:00</time>
      </trkpt>
      <trkpt lat="44.74945" lon="5.50826">
        <ele>858</ele>
        <time>2020-07-12T17:50:56+02:00</time>
      </trkpt>
      <trkpt lat="44.74946" lon="5.50831">
        <ele>859</ele>
        <time>2020-07-12T17:51:01+02:00</time>
      </trkpt>
      <trkpt lat="44.74949" lon="5.50833">
        <ele>860</ele>
        <time>2020-07-12T17:51:06+02:00</time>
      </trkpt>
      <trkpt lat="44.74951" lon="5.50833">
        <ele>861</ele>
        <time>2020-07-12T17:51:11+02:00</time>
      </trkpt>
      <trkpt lat="44.74957" lon="5.50828">
        <ele>862</ele>
        <time>2020-07-12T17:51:16+02:00</time>
      </trkpt>
      <trkpt lat="44.7496" lon="5.50826">
        <ele>863</ele>
        <time>2020-07-12T17:51:21+02:00</time>
      </trkpt>
      <trkpt lat="44.74963" lon="5.50821">
        <ele>863</ele>
        <time>2020-07-12T17:51:26+02:00</time>
      </trkpt>
      <trkpt lat="44.74966" lon="5.5082">
        <ele>864</ele>
        <time>2020-07-12T17:51:31+02:00</time>
      </trkpt>
      <trkpt lat="44.74971" lon="5.50818">
        <ele>866</ele>
        <time>2020-07-12T17:51:36+02:00</time>
      </trkpt>
      <trkpt lat="44.74974" lon="5.50816">
        <ele>866</ele>
        <time>2020-07-12T17:51:41+02:00</time>
      </trkpt>
      <trkpt lat="44.74978" lon="5.50813">
        <ele>867</ele>
        <time>2020-07-12T17:51:46+02:00</time>
      </trkpt>
      <trkpt lat="44.74982" lon="5.50811">
        <ele>868</ele>
        <time>2020-07-12T17:51:51+02:00</time>
      </trkpt>
      <trkpt lat="44.74983" lon="5.50807">
        <ele>868</ele>
        <time>2020-07-12T17:51:56+02:00</time>
      </trkpt>
      <trkpt lat="44.74986" lon="5.50803">
        <ele>869</ele>
        <time>2020-07-12T17:52:01+02:00</time>
      </trkpt>
      <trkpt lat="44.74987" lon="5.508">
        <ele>869</ele>
        <time>2020-07-12T17:52:06+02:00</time>
      </trkpt>
      <trkpt lat="44.7499" lon="5.50793">
        <ele>869</ele>
        <time>2020-07-12T17:52:11+02:00</time>
      </trkpt>
      <trkpt lat="44.74994" lon="5.50789">
        <ele>870</ele>
        <time>2020-07-12T17:52:16+02:00</time>
      </trkpt>
      <trkpt lat="44.74998" lon="5.50785">
        <ele>871</ele>
        <time>2020-07-12T17:52:21+02:00</time>
      </trkpt>
      <trkpt lat="44.75002" lon="5.50782">
        <ele>872</ele>
        <time>2020-07-12T17:52:26+02:00</time>
      </trkpt>
      <trkpt lat="44.75005" lon="5.5078">
        <ele>873</ele>
        <time>2020-07-12T17:52:31+02:00</time>
      </trkpt>
      <trkpt lat="44.75009" lon="5.50777">
        <ele>874</ele>
        <time>2020-07-12T17:52:36+02:00</time>
      </trkpt>
      <trkpt lat="44.75012" lon="5.50773">
        <ele>876</ele>
        <time>2020-07-12T17:52:41+02:00</time>
      </trkpt>
      <trkpt lat="44.75019" lon="5.50772">
        <ele>878</ele>
        <time>2020-07-12T17:52:46+02:00</time>
      </trkpt>
      <trkpt lat="44.75023" lon="5.5077">
        <ele>879</ele>
        <time>2020-07-12T17:52:51+02:00</time>
      </trkpt>
      <trkpt lat="44.75026" lon="5.50767">
        <ele>881</ele>
        <time>2020-07-12T17:52:56+02:00</time>
      </trkpt>
      <trkpt lat="44.75028" lon="5.50766">
        <ele>881</ele>
        <time>2020-07-12T17:53:01+02:00</time>
      </trkpt>
      <trkpt lat="44.75035" lon="5.50761">
        <ele>884</ele>
        <time>2020-07-12T17:53:06+02:00</time>
      </trkpt>
      <trkpt lat="44.75048" lon="5.50756">
        <ele>888</ele>
        <time>2020-07-12T17:53:11+02:00</time>
      </trkpt>
      <trkpt lat="44.75058" lon="5.50752">
        <ele>892</ele>
        <time>2020-07-12T17:53:16+02:00</time>
      </trkpt>
      <trkpt lat="44.7506" lon="5.50748">
        <ele>893</ele>
        <time>2020-07-12T17:53:21+02:00</time>
      </trkpt>
      <trkpt lat="44.75065" lon="5.50742">
        <ele>894</ele>
        <time>2020-07-12T17:53:26+02:00</time>
      </trkpt>
      <trkpt lat="44.75073" lon="5.50736">
        <ele>897</ele>
        <time>2020-07-12T17:53:31+02:00</time>
      </trkpt>
      <trkpt lat="44.75078" lon="5.50729">
        <ele>899</ele>
        <time>2020-07-12T17:53:36+02:00</time>
      </trkpt>
      <trkpt lat="44.75082" lon="5.50722">
        <ele>901</ele>
        <time>2020-07-12T17:53:41+02:00</time>
      </trkpt>
      <trkpt lat="44.75083" lon="5.50716">
        <ele>903</ele>
        <time>2020-07-12T17:53:46+02:00</time>
      </trkpt>
      <trkpt lat="44.75084" lon="5.50709">
        <ele>904</ele>
        <time>2020-07-12T17:53:51+02:00</time>
      </trkpt>
      <trkpt lat="44.75086" lon="5.50705">
        <ele>905</ele>
        <time>2020-07-12T17:53:56+02:00</time>
      </trkpt>
      <trkpt lat="44.75087" lon="5.507">
        <ele>905</ele>
        <time>2020-07-12T17:54:01+02:00</time>
      </trkpt>
      <trkpt lat="44.75088" lon="5.50691">
        <ele>907</ele>
        <time>2020-07-12T17:54:06+02:00</time>
      </trkpt>
      <trkpt lat="44.75091" lon="5.50687">
        <ele>908</ele>
        <time>2020-07-12T17:54:11+02:00</time>
      </trkpt>
      <trkpt lat="44.75095" lon="5.50681">
        <ele>910</ele>
        <time>2020-07-12T17:54:16+02:00</time>
      </trkpt>
      <trkpt lat="44.75098" lon="5.50678">
        <ele>911</ele>
        <time>2020-07-12T17:54:21+02:00</time>
      </trkpt>
      <trkpt lat="44.75101" lon="5.50675">
        <ele>912</ele>
        <time>2020-07-12T17:54:26+02:00</time>
      </trkpt>
      <trkpt lat="44.75107" lon="5.50671">
        <ele>914</ele>
        <time>2020-07-12T17:54:31+02:00</time>
      </trkpt>
      <trkpt lat="44.75112" lon="5.50672">
        <ele>916</ele>
        <time>2020-07-12T17:54:36+02:00</time>
      </trkpt>
      <trkpt lat="44.75113" lon="5.50673">
        <ele>916</ele>
        <time>2020-07-12T17:54:41+02:00</time>
      </trkpt>
      <trkpt lat="44.75162" lon="5.50729">
        <ele>922</ele>
        <time>2020-07-12T17:54:46+02:00</time>
      </trkpt>
      <trkpt lat="44.75211" lon="5.50768">
        <ele>926</ele>
        <time>2020-07-12T17:54:51+02:00</time>
      </trkpt>
      <trkpt lat="44.75273" lon="5.50771">
        <ele>939</ele>
        <time>2020-07-12T17:54:56+02:00</time>
      </trkpt>
      <trkpt lat="44.75326" lon="5.50771">
        <ele>947</ele>
        <time>2020-07-12T17:55:01+02:00</time>
      </trkpt>
      <trkpt lat="44.75394" lon="5.50752">
        <ele>957</ele>
        <time>2020-07-12T17:55:06+02:00</time>
      </trkpt>
      <trkpt lat="44.75416" lon="5.50754">
        <ele>960</ele>
        <time>2020-07-12T17:55:11+02:00</time>
      </trkpt>
      <trkpt lat="44.75463" lon="5.50719">
        <ele>969</ele>
        <time>2020-07-12T17:55:16+02:00</time>
      </trkpt>
      <trkpt lat="44.75515" lon="5.50703">
        <ele>978</ele>
        <time>2020-07-12T17:55:21+02:00</time>
      </trkpt>
      <trkpt lat="44.75541" lon="5.50684">
        <ele>985</ele>
        <time>2020-07-12T17:55:26+02:00</time>
      </trkpt>
      <trkpt lat="44.75565" lon="5.50692">
        <ele>987</ele>
        <time>2020-07-12T17:55:31+02:00</time>
      </trkpt>
      <trkpt lat="44.75569" lon="5.50692">
        <ele>988</ele>
        <time>2020-07-12T17:55:36+02:00</time>
      </trkpt>
      <trkpt lat="44.75575" lon="5.50693">
        <ele>989</ele>
        <time>2020-07-12T17:55:41+02:00</time>
      </trkpt>
      <trkpt lat="44.7558" lon="5.50692">
        <ele>990</ele>
        <time>2020-07-12T17:55:46+02:00</time>
      </trkpt>
      <trkpt lat="44.75584" lon="5.50691">
        <ele>990</ele>
        <time>2020-07-12T17:55:51+02:00</time>
      </trkpt>
      <trkpt lat="44.75588" lon="5.50691">
        <ele>991</ele>
        <time>2020-07-12T17:55:56+02:00</time>
      </trkpt>
      <trkpt lat="44.75592" lon="5.50689">
        <ele>992</ele>
        <time>2020-07-12T17:56:01+02:00</time>
      </trkpt>
      <trkpt lat="44.75597" lon="5.50687">
        <ele>993</ele>
        <time>2020-07-12T17:56:06+02:00</time>
      </trkpt>
      <trkpt lat="44.75601" lon="5.50687">
        <ele>994</ele>
        <time>2020-07-12T17:56:11+02:00</time>
      </trkpt>
      <trkpt lat="44.75605" lon="5.50685">
        <ele>995</ele>
        <time>2020-07-12T17:56:16+02:00</time>
      </trkpt>
      <trkpt lat="44.75608" lon="5.50684">
        <ele>996</ele>
        <time>2020-07-12T17:56:21+02:00</time>
      </trkpt>
      <trkpt lat="44.75611" lon="5.50683">
        <ele>996</ele>
        <time>2020-07-12T17:56:26+02:00</time>
      </trkpt>
      <trkpt lat="44.75615" lon="5.5068">
        <ele>997</ele>
        <time>2020-07-12T17:56:31+02:00</time>
      </trkpt>
      <trkpt lat="44.75619" lon="5.50677">
        <ele>998</ele>
        <time>2020-07-12T17:56:36+02:00</time>
      </trkpt>
      <trkpt lat="44.75622" lon="5.50676">
        <ele>998</ele>
        <time>2020-07-12T17:56:41+02:00</time>
      </trkpt>
      <trkpt lat="44.75624" lon="5.50674">
        <ele>998</ele>
        <time>2020-07-12T17:56:46+02:00</time>
      </trkpt>
      <trkpt lat="44.75628" lon="5.50671">
        <ele>999</ele>
        <time>2020-07-12T17:56:51+02:00</time>
      </trkpt>
      <trkpt lat="44.75629" lon="5.5067">
        <ele>999</ele>
        <time>2020-07-12T17:56:56+02:00</time>
      </trkpt>
      <trkpt lat="44.75633" lon="5.50667">
        <ele>999</ele>
        <time>2020-07-12T17:57:01+02:00</time>
      </trkpt>
      <trkpt lat="44.75635" lon="5.50662">
        <ele>1000</ele>
        <time>2020-07-12T17:57:06+02:00</time>
      </trkpt>
      <trkpt lat="44.75636" lon="5.5066">
        <ele>1000</ele>
        <time>2020-07-12T17:57:11+02:00</time>
      </trkpt>
      <trkpt lat="44.7564" lon="5.50656">
        <ele>1001</ele>
        <time>2020-07-12T17:57:16+02:00</time>
      </trkpt>
      <trkpt lat="44.75643" lon="5.50653">
        <ele>1001</ele>
        <time>2020-07-12T17:57:21+02:00</time>
      </trkpt>
      <trkpt lat="44.75645" lon="5.50651">
        <ele>1001</ele>
        <time>2020-07-12T17:57:26+02:00</time>
      </trkpt>
      <trkpt lat="44.75649" lon="5.50649">
        <ele>1002</ele>
        <time>2020-07-12T17:57:31+02:00</time>
      </trkpt>
      <trkpt lat="44.75655" lon="5.50648">
        <ele>1001</ele>
        <time>2020-07-12T17:57:36+02:00</time>
      </trkpt>
      <trkpt lat="44.75659" lon="5.50648">
        <ele>1001</ele>
        <time>2020-07-12T17:57:41+02:00</time>
      </trkpt>
      <trkpt lat="44.7567" lon="5.5064">
        <ele>1001</ele>
        <time>2020-07-12T17:57:46+02:00</time>
      </trkpt>
      <trkpt lat="44.75673" lon="5.50636">
        <ele>1002</ele>
        <time>2020-07-12T17:57:51+02:00</time>
      </trkpt>
      <trkpt lat="44.75678" lon="5.50632">
        <ele>1004</ele>
        <time>2020-07-12T17:57:56+02:00</time>
      </trkpt>
      <trkpt lat="44.75678" lon="5.50627">
        <ele>1005</ele>
        <time>2020-07-12T17:58:01+02:00</time>
      </trkpt>
      <trkpt lat="44.75679" lon="5.50622">
        <ele>1007</ele>
        <time>2020-07-12T17:58:06+02:00</time>
      </trkpt>
      <trkpt lat="44.75678" lon="5.50616">
        <ele>1009</ele>
        <time>2020-07-12T17:58:11+02:00</time>
      </trkpt>
      <trkpt lat="44.75678" lon="5.50609">
        <ele>1012</ele>
        <time>2020-07-12T17:58:16+02:00</time>
      </trkpt>
      <trkpt lat="44.75678" lon="5.50607">
        <ele>1013</ele>
        <time>2020-07-12T17:58:21+02:00</time>
      </trkpt>
      <trkpt lat="44.75679" lon="5.50601">
        <ele>1015</ele>
        <time>2020-07-12T17:58:26+02:00</time>
      </trkpt>
      <trkpt lat="44.75731" lon="5.50527">
        <ele>1037</ele>
        <time>2020-07-12T17:58:31+02:00</time>
      </trkpt>
      <trkpt lat="44.75795" lon="5.50469">
        <ele>1053</ele>
        <time>2020-07-12T17:58:36+02:00</time>
      </trkpt>
      <trkpt lat="44.75829" lon="5.50417">
        <ele>1073</ele>
        <time>2020-07-12T17:58:41+02:00</time>
      </trkpt>
      <trkpt lat="44.75909" lon="5.50375">
        <ele>1078</ele>
        <time>2020-07-12T17:58:46+02:00</time>
      </trkpt>
      <trkpt lat="44.75981" lon="5.50393">
        <ele>1092</ele>
        <time>2020-07-12T17:58:51+02:00</time>
      </trkpt>
      <trkpt lat="44.76009" lon="5.50395">
        <ele>1099</ele>
        <time>2020-07-12T17:58:56+02:00</time>
      </trkpt>
      <trkpt lat="44.76016" lon="5.50401">
        <ele>1099</ele>
        <time>2020-07-12T17:59:01+02:00</time>
      </trkpt>
      <trkpt lat="44.76016" lon="5.50402">
        <ele>1099</ele>
        <time>2020-07-12T17:59:06+02:00</time>
      </trkpt>
      <trkpt lat="44.76016" lon="5.50408">
        <ele>1098</ele>
        <time>2020-07-12T17:59:11+02:00</time>
      </trkpt>
      <trkpt lat="44.76016" lon="5.50418">
        <ele>1097</ele>
        <time>2020-07-12T17:59:16+02:00</time>
      </trkpt>
      <trkpt lat="44.76016" lon="5.50427">
        <ele>1098</ele>
        <time>2020-07-12T17:59:21+02:00</time>
      </trkpt>
      <trkpt lat="44.76016" lon="5.50434">
        <ele>1099</ele>
        <time>2020-07-12T17:59:26+02:00</time>
      </trkpt>
      <trkpt lat="44.76019" lon="5.50436">
        <ele>1100</ele>
        <time>2020-07-12T17:59:31+02:00</time>
      </trkpt>
      <trkpt lat="44.7602" lon="5.50431">
        <ele>1100</ele>
        <time>2020-07-12T17:59:36+02:00</time>
      </trkpt>
      <trkpt lat="44.7602" lon="5.50425">
        <ele>1099</ele>
        <time>2020-07-12T17:59:41+02:00</time>
      </trkpt>
      <trkpt lat="44.7602" lon="5.50417">
        <ele>1098</ele>
        <time>2020-07-12T17:59:46+02:00</time>
      </trkpt>
      <trkpt lat="44.76019" lon="5.50411">
        <ele>1098</ele>
        <time>2020-07-12T17:59:51+02:00</time>
      </trkpt>
      <trkpt lat="44.76016" lon="5.50399">
        <ele>1099</ele>
        <time>2020-07-12T17:59:56+02:00</time>
      </trkpt>
      <trkpt lat="44.76009" lon="5.50389">
        <ele>1100</ele>
        <time>2020-07-12T18:00:01+02:00</time>
      </trkpt>
      <trkpt lat="44.76004" lon="5.50382">
        <ele>1101</ele>
        <time>2020-07-12T18:00:06+02:00</time>
      </trkpt>
      <trkpt lat="44.76" lon="5.50375">
        <ele>1103</ele>
        <time>2020-07-12T18:00:11+02:00</time>
      </trkpt>
      <trkpt lat="44.75999" lon="5.5037">
        <ele>1105</ele>
        <time>2020-07-12T18:00:16+02:00</time>
      </trkpt>
      <trkpt lat="44.75994" lon="5.50366">
        <ele>1105</ele>
        <time>2020-07-12T18:00:21+02:00</time>
      </trkpt>
      <trkpt lat="44.75988" lon="5.50363">
        <ele>1104</ele>
        <time>2020-07-12T18:00:26+02:00</time>
      </trkpt>
      <trkpt lat="44.75985" lon="5.50363">
        <ele>1103</ele>
        <time>2020-07-12T18:00:31+02:00</time>
      </trkpt>
      <trkpt lat="44.75982" lon="5.50362">
        <ele>1102</ele>
        <time>2020-07-12T18:00:36+02:00</time>
      </trkpt>
      <trkpt lat="44.75977" lon="5.5036">
        <ele>1102</ele>
        <time>2020-07-12T18:00:41+02:00</time>
      </trkpt>
      <trkpt lat="44.75973" lon="5.50355">
        <ele>1102</ele>
        <time>2020-07-12T18:00:46+02:00</time>
      </trkpt>
      <trkpt lat="44.75971" lon="5.50351">
        <ele>1103</ele>
        <time>2020-07-12T18:00:51+02:00</time>
      </trkpt>
      <trkpt lat="44.75968" lon="5.50345">
        <ele>1104</ele>
        <time>2020-07-12T18:00:56+02:00</time>
      </trkpt>
      <trkpt lat="44.75967" lon="5.50339">
        <ele>1106</ele>
        <time>2020-07-12T18:01:01+02:00</time>
      </trkpt>
      <trkpt lat="44.75965" lon="5.50333">
        <ele>1107</ele>
        <time>2020-07-12T18:01:06+02:00</time>
      </trkpt>
      <trkpt lat="44.75962" lon="5.50328">
        <ele>1109</ele>
        <time>2020-07-12T18:01:11+02:00</time>
      </trkpt>
      <trkpt lat="44.75959" lon="5.50324">
        <ele>1109</ele>
        <time>2020-07-12T18:01:16+02:00</time>
      </trkpt>
      <trkpt lat="44.75954" lon="5.50321">
        <ele>1110</ele>
        <time>2020-07-12T18:01:21+02:00</time>
      </trkpt>
      <trkpt lat="44.75949" lon="5.50316">
        <ele>1110</ele>
        <time>2020-07-12T18:01:26+02:00</time>
      </trkpt>
      <trkpt lat="44.75945" lon="5.50315">
        <ele>1110</ele>
        <time>2020-07-12T18:01:31+02:00</time>
      </trkpt>
      <trkpt lat="44.75941" lon="5.50315">
        <ele>1109</ele>
        <time>2020-07-12T18:01:36+02:00</time>
      </trkpt>
      <trkpt lat="44.75937" lon="5.50314">
        <ele>1109</ele>
        <time>2020-07-12T18:01:41+02:00</time>
      </trkpt>
      <trkpt lat="44.75932" lon="5.50313">
        <ele>1109</ele>
        <time>2020-07-12T18:01:46+02:00</time>
      </trkpt>
      <trkpt lat="44.75929" lon="5.50311">
        <ele>1110</ele>
        <time>2020-07-12T18:01:51+02:00</time>
      </trkpt>
      <trkpt lat="44.75926" lon="5.50307">
        <ele>1111</ele>
        <time>2020-07-12T18:01:56+02:00</time>
      </trkpt>
      <trkpt lat="44.75921" lon="5.50302">
        <ele>1112</ele>
        <time>2020-07-12T18:02:01+02:00</time>
      </trkpt>
      <trkpt lat="44.75918" lon="5.50301">
        <ele>1112</ele>
        <time>2020-07-12T18:02:06+02:00</time>
      </trkpt>
      <trkpt lat="44.75914" lon="5.50299">
        <ele>1112</ele>
        <time>2020-07-12T18:02:11+02:00</time>
      </trkpt>
      <trkpt lat="44.75908" lon="5.50293">
        <ele>1113</ele>
        <time>2020-07-12T18:02:16+02:00</time>
      </trkpt>
      <trkpt lat="44.75904" lon="5.5029">
        <ele>1114</ele>
        <time>2020-07-12T18:02:21+02:00</time>
      </trkpt>
      <trkpt lat="44.75901" lon="5.50288">
        <ele>1114</ele>
        <time>2020-07-12T18:02:26+02:00</time>
      </trkpt>
      <trkpt lat="44.75896" lon="5.50286">
        <ele>1114</ele>
        <time>2020-07-12T18:02:31+02:00</time>
      </trkpt>
      <trkpt lat="44.75891" lon="5.50284">
        <ele>1114</ele>
        <time>2020-07-12T18:02:36+02:00</time>
      </trkpt>
      <trkpt lat="44.75883" lon="5.50282">
        <ele>1113</ele>
        <time>2020-07-12T18:02:41+02:00</time>
      </trkpt>
      <trkpt lat="44.75879" lon="5.5028">
        <ele>1113</ele>
        <time>2020-07-12T18:02:46+02:00</time>
      </trkpt>
      <trkpt lat="44.75877" lon="5.5028">
        <ele>1113</ele>
        <time>2020-07-12T18:02:51+02:00</time>
      </trkpt>
      <trkpt lat="44.7587" lon="5.50277">
        <ele>1112</ele>
        <time>2020-07-12T18:02:56+02:00</time>
      </trkpt>
      <trkpt lat="44.75866" lon="5.50274">
        <ele>1112</ele>
        <time>2020-07-12T18:03:01+02:00</time>
      </trkpt>
      <trkpt lat="44.75858" lon="5.50269">
        <ele>1113</ele>
        <time>2020-07-12T18:03:06+02:00</time>
      </trkpt>
      <trkpt lat="44.75853" lon="5.50268">
        <ele>1112</ele>
        <time>2020-07-12T18:03:11+02:00</time>
      </trkpt>
      <trkpt lat="44.75847" lon="5.50268">
        <ele>1112</ele>
        <time>2020-07-12T18:03:16+02:00</time>
      </trkpt>
      <trkpt lat="44.75845" lon="5.50268">
        <ele>1111</ele>
        <time>2020-07-12T18:03:21+02:00</time>
      </trkpt>
      <trkpt lat="44.75838" lon="5.50264">
        <ele>1112</ele>
        <time>2020-07-12T18:03:26+02:00</time>
      </trkpt>
      <trkpt lat="44.75835" lon="5.50262">
        <ele>1112</ele>
        <time>2020-07-12T18:03:31+02:00</time>
      </trkpt>
      <trkpt lat="44.75833" lon="5.50258">
        <ele>1114</ele>
        <time>2020-07-12T18:03:36+02:00</time>
      </trkpt>
      <trkpt lat="44.75829" lon="5.50247">
        <ele>1118</ele>
        <time>2020-07-12T18:03:41+02:00</time>
      </trkpt>
      <trkpt lat="44.75825" lon="5.50245">
        <ele>1118</ele>
        <time>2020-07-12T18:03:46+02:00</time>
      </trkpt>
      <trkpt lat="44.75824" lon="5.50245">
        <ele>1118</ele>
        <time>2020-07-12T18:03:51+02:00</time>
      </trkpt>
      <trkpt lat="44.75819" lon="5.50245">
        <ele>1117</ele>
        <time>2020-07-12T18:03:56+02:00</time>
      </trkpt>
      <trkpt lat="44.75812" lon="5.50243">
        <ele>1117</ele>
        <time>2020-07-12T18:04:01+02:00</time>
      </trkpt>
      <trkpt lat="44.75807" lon="5.50243">
        <ele>1116</ele>
        <time>2020-07-12T18:04:06+02:00</time>
      </trkpt>
      <trkpt lat="44.75801" lon="5.50242">
        <ele>1116</ele>
        <time>2020-07-12T18:04:11+02:00</time>
      </trkpt>
      <trkpt lat="44.75797" lon="5.50243">
        <ele>1115</ele>
        <time>2020-07-12T18:04:16+02:00</time>
      </trkpt>
      <trkpt lat="44.75795" lon="5.50243">
        <ele>1115</ele>
        <time>2020-07-12T18:04:21+02:00</time>
      </trkpt>
      <trkpt lat="44.7579" lon="5.50243">
        <ele>1114</ele>
        <time>2020-07-12T18:04:26+02:00</time>
      </trkpt>
      <trkpt lat="44.75784" lon="5.50243">
        <ele>1113</ele>
        <time>2020-07-12T18:04:31+02:00</time>
      </trkpt>
      <trkpt lat="44.75781" lon="5.50244">
        <ele>1113</ele>
        <time>2020-07-12T18:04:36+02:00</time>
      </trkpt>
      <trkpt lat="44.75776" lon="5.50242">
        <ele>1113</ele>
        <time>2020-07-12T18:04:41+02:00</time>
      </trkpt>
      <trkpt lat="44.75772" lon="5.5024">
        <ele>1114</ele>
        <time>2020-07-12T18:04:46+02:00</time>
      </trkpt>
      <trkpt lat="44.75766" lon="5.50239">
        <ele>1114</ele>
        <time>2020-07-12T18:04:51+02:00</time>
      </trkpt>
      <trkpt lat="44.75764" lon="5.5024">
        <ele>1114</ele>
        <time>2020-07-12T18:04:56+02:00</time>
      </trkpt>
      <trkpt lat="44.7576" lon="5.50238">
        <ele>1114</ele>
        <time>2020-07-12T18:05:01+02:00</time>
      </trkpt>
      <trkpt lat="44.75755" lon="5.50235">
        <ele>1115</ele>
        <time>2020-07-12T18:05:06+02:00</time>
      </trkpt>
      <trkpt lat="44.75754" lon="5.50233">
        <ele>1116</ele>
        <time>2020-07-12T18:05:11+02:00</time>
      </trkpt>
      <trkpt lat="44.75752" lon="5.50227">
        <ele>1118</ele>
        <time>2020-07-12T18:05:16+02:00</time>
      </trkpt>
      <trkpt lat="44.7575" lon="5.50223">
        <ele>1119</ele>
        <time>2020-07-12T18:05:21+02:00</time>
      </trkpt>
      <trkpt lat="44.75751" lon="5.5022">
        <ele>1120</ele>
        <time>2020-07-12T18:05:26+02:00</time>
      </trkpt>
      <trkpt lat="44.75757" lon="5.50218">
        <ele>1121</ele>
        <time>2020-07-12T18:05:31+02:00</time>
      </trkpt>
      <trkpt lat="44.75761" lon="5.50217">
        <ele>1122</ele>
        <time>2020-07-12T18:05:36+02:00</time>
      </trkpt>
      <trkpt lat="44.75768" lon="5.50216">
        <ele>1123</ele>
        <time>2020-07-12T18:05:41+02:00</time>
      </trkpt>
      <trkpt lat="44.75774" lon="5.50214">
        <ele>1124</ele>
        <time>2020-07-12T18:05:46+02:00</time>
      </trkpt>
      <trkpt lat="44.75779" lon="5.50214">
        <ele>1125</ele>
        <time>2020-07-12T18:05:51+02:00</time>
      </trkpt>
      <trkpt lat="44.75783" lon="5.50212">
        <ele>1126</ele>
        <time>2020-07-12T18:05:56+02:00</time>
      </trkpt>
      <trkpt lat="44.75786" lon="5.5021">
        <ele>1127</ele>
        <time>2020-07-12T18:06:01+02:00</time>
      </trkpt>
      <trkpt lat="44.75789" lon="5.50208">
        <ele>1129</ele>
        <time>2020-07-12T18:06:06+02:00</time>
      </trkpt>
      <trkpt lat="44.75792" lon="5.50207">
        <ele>1130</ele>
        <time>2020-07-12T18:06:11+02:00</time>
      </trkpt>
      <trkpt lat="44.75796" lon="5.50205">
        <ele>1132</ele>
        <time>2020-07-12T18:06:16+02:00</time>
      </trkpt>
      <trkpt lat="44.758" lon="5.50204">
        <ele>1133</ele>
        <time>2020-07-12T18:06:21+02:00</time>
      </trkpt>
      <trkpt lat="44.75803" lon="5.50201">
        <ele>1135</ele>
        <time>2020-07-12T18:06:26+02:00</time>
      </trkpt>
      <trkpt lat="44.75807" lon="5.502">
        <ele>1136</ele>
        <time>2020-07-12T18:06:31+02:00</time>
      </trkpt>
      <trkpt lat="44.7581" lon="5.50197">
        <ele>1137</ele>
        <time>2020-07-12T18:06:36+02:00</time>
      </trkpt>
      <trkpt lat="44.75813" lon="5.50194">
        <ele>1139</ele>
        <time>2020-07-12T18:06:41+02:00</time>
      </trkpt>
      <trkpt lat="44.75817" lon="5.5019">
        <ele>1142</ele>
        <time>2020-07-12T18:06:46+02:00</time>
      </trkpt>
      <trkpt lat="44.75819" lon="5.50187">
        <ele>1143</ele>
        <time>2020-07-12T18:06:51+02:00</time>
      </trkpt>
      <trkpt lat="44.75822" lon="5.50184">
        <ele>1145</ele>
        <time>2020-07-12T18:06:56+02:00</time>
      </trkpt>
      <trkpt lat="44.75825" lon="5.50183">
        <ele>1146</ele>
        <time>2020-07-12T18:07:01+02:00</time>
      </trkpt>
      <trkpt lat="44.75831" lon="5.50181">
        <ele>1148</ele>
        <time>2020-07-12T18:07:06+02:00</time>
      </trkpt>
      <trkpt lat="44.75835" lon="5.50181">
        <ele>1149</ele>
        <time>2020-07-12T18:07:11+02:00</time>
      </trkpt>
      <trkpt lat="44.75839" lon="5.5018">
        <ele>1150</ele>
        <time>2020-07-12T18:07:16+02:00</time>
      </trkpt>
      <trkpt lat="44.75842" lon="5.50178">
        <ele>1151</ele>
        <time>2020-07-12T18:07:21+02:00</time>
      </trkpt>
      <trkpt lat="44.75847" lon="5.50177">
        <ele>1153</ele>
        <time>2020-07-12T18:07:26+02:00</time>
      </trkpt>
      <trkpt lat="44.75852" lon="5.50175">
        <ele>1154</ele>
        <time>2020-07-12T18:07:31+02:00</time>
      </trkpt>
      <trkpt lat="44.75855" lon="5.50173">
        <ele>1156</ele>
        <time>2020-07-12T18:07:36+02:00</time>
      </trkpt>
      <trkpt lat="44.75859" lon="5.50169">
        <ele>1159</ele>
        <time>2020-07-12T18:07:41+02:00</time>
      </trkpt>
      <trkpt lat="44.75863" lon="5.50165">
        <ele>1161</ele>
        <time>2020-07-12T18:07:46+02:00</time>
      </trkpt>
      <trkpt lat="44.75866" lon="5.50163">
        <ele>1163</ele>
        <time>2020-07-12T18:07:51+02:00</time>
      </trkpt>
      <trkpt lat="44.75869" lon="5.50162">
        <ele>1164</ele>
        <time>2020-07-12T18:07:56+02:00</time>
      </trkpt>
      <trkpt lat="44.75872" lon="5.50161">
        <ele>1165</ele>
        <time>2020-07-12T18:08:01+02:00</time>
      </trkpt>
      <trkpt lat="44.75874" lon="5.50157">
        <ele>1167</ele>
        <time>2020-07-12T18:08:06+02:00</time>
      </trkpt>
      <trkpt lat="44.75879" lon="5.50156">
        <ele>1169</ele>
        <time>2020-07-12T18:08:11+02:00</time>
      </trkpt>
      <trkpt lat="44.75884" lon="5.50156">
        <ele>1170</ele>
        <time>2020-07-12T18:08:16+02:00</time>
      </trkpt>
      <trkpt lat="44.75889" lon="5.50155">
        <ele>1171</ele>
        <time>2020-07-12T18:08:21+02:00</time>
      </trkpt>
      <trkpt lat="44.75895" lon="5.50155">
        <ele>1173</ele>
        <time>2020-07-12T18:08:26+02:00</time>
      </trkpt>
      <trkpt lat="44.75902" lon="5.50154">
        <ele>1175</ele>
        <time>2020-07-12T18:08:31+02:00</time>
      </trkpt>
      <trkpt lat="44.75906" lon="5.50154">
        <ele>1176</ele>
        <time>2020-07-12T18:08:36+02:00</time>
      </trkpt>
      <trkpt lat="44.75911" lon="5.50154">
        <ele>1177</ele>
        <time>2020-07-12T18:08:41+02:00</time>
      </trkpt>
      <trkpt lat="44.75915" lon="5.50153">
        <ele>1178</ele>
        <time>2020-07-12T18:08:46+02:00</time>
      </trkpt>
      <trkpt lat="44.7592" lon="5.50153">
        <ele>1179</ele>
        <time>2020-07-12T18:08:51+02:00</time>
      </trkpt>
      <trkpt lat="44.75922" lon="5.50151">
        <ele>1181</ele>
        <time>2020-07-12T18:08:56+02:00</time>
      </trkpt>
      <trkpt lat="44.75924" lon="5.50144">
        <ele>1184</ele>
        <time>2020-07-12T18:09:01+02:00</time>
      </trkpt>
      <trkpt lat="44.75926" lon="5.50141">
        <ele>1186</ele>
        <time>2020-07-12T18:09:06+02:00</time>
      </trkpt>
      <trkpt lat="44.75928" lon="5.50138">
        <ele>1188</ele>
        <time>2020-07-12T18:09:11+02:00</time>
      </trkpt>
      <trkpt lat="44.75929" lon="5.50131">
        <ele>1191</ele>
        <time>2020-07-12T18:09:16+02:00</time>
      </trkpt>
      <trkpt lat="44.7593" lon="5.50127">
        <ele>1194</ele>
        <time>2020-07-12T18:09:21+02:00</time>
      </trkpt>
      <trkpt lat="44.75931" lon="5.5012">
        <ele>1198</ele>
        <time>2020-07-12T18:09:26+02:00</time>
      </trkpt>
      <trkpt lat="44.75933" lon="5.50116">
        <ele>1200</ele>
        <time>2020-07-12T18:09:31+02:00</time>
      </trkpt>
      <trkpt lat="44.75936" lon="5.50109">
        <ele>1205</ele>
        <time>2020-07-12T18:09:36+02:00</time>
      </trkpt>
      <trkpt lat="44.7594" lon="5.50108">
        <ele>1206</ele>
        <time>2020-07-12T18:09:41+02:00</time>
      </trkpt>
      <trkpt lat="44.75944" lon="5.50108">
        <ele>1207</ele>
        <time>2020-07-12T18:09:46+02:00</time>
      </trkpt>
      <trkpt lat="44.75949" lon="5.50105">
        <ele>1210</ele>
        <time>2020-07-12T18:09:51+02:00</time>
      </trkpt>
      <trkpt lat="44.75953" lon="5.50103">
        <ele>1212</ele>
        <time>2020-07-12T18:09:56+02:00</time>
      </trkpt>
      <trkpt lat="44.75957" lon="5.50101">
        <ele>1214</ele>
        <time>2020-07-12T18:10:01+02:00</time>
      </trkpt>
      <trkpt lat="44.7596" lon="5.501">
        <ele>1215</ele>
        <time>2020-07-12T18:10:06+02:00</time>
      </trkpt>
      <trkpt lat="44.75963" lon="5.50097">
        <ele>1217</ele>
        <time>2020-07-12T18:10:11+02:00</time>
      </trkpt>
      <trkpt lat="44.75964" lon="5.50093">
        <ele>1220</ele>
        <time>2020-07-12T18:10:16+02:00</time>
      </trkpt>
      <trkpt lat="44.75965" lon="5.50089">
        <ele>1222</ele>
        <time>2020-07-12T18:10:21+02:00</time>
      </trkpt>
      <trkpt lat="44.75969" lon="5.50085">
        <ele>1226</ele>
        <time>2020-07-12T18:10:26+02:00</time>
      </trkpt>
      <trkpt lat="44.75971" lon="5.50083">
        <ele>1227</ele>
        <time>2020-07-12T18:10:31+02:00</time>
      </trkpt>
      <trkpt lat="44.75973" lon="5.50082">
        <ele>1228</ele>
        <time>2020-07-12T18:10:36+02:00</time>
      </trkpt>
      <trkpt lat="44.75995" lon="5.50062">
        <ele>1244</ele>
        <time>2020-07-12T18:10:41+02:00</time>
      </trkpt>
      <trkpt lat="44.76" lon="5.50049">
        <ele>1258</ele>
        <time>2020-07-12T18:10:46+02:00</time>
      </trkpt>
      <trkpt lat="44.76003" lon="5.5004">
        <ele>1271</ele>
        <time>2020-07-12T18:10:51+02:00</time>
      </trkpt>
      <trkpt lat="44.76008" lon="5.50019">
        <ele>1306</ele>
        <time>2020-07-12T18:10:56+02:00</time>
      </trkpt>
      <trkpt lat="44.76012" lon="5.50014">
        <ele>1317</ele>
        <time>2020-07-12T18:11:01+02:00</time>
      </trkpt>
      <trkpt lat="44.76014" lon="5.50012">
        <ele>1320</ele>
        <time>2020-07-12T18:11:06+02:00</time>
      </trkpt>
      <trkpt lat="44.76019" lon="5.50008">
        <ele>1326</ele>
        <time>2020-07-12T18:11:11+02:00</time>
      </trkpt>
      <trkpt lat="44.76021" lon="5.50005">
        <ele>1332</ele>
        <time>2020-07-12T18:11:16+02:00</time>
      </trkpt>
      <trkpt lat="44.76023" lon="5.5">
        <ele>1339</ele>
        <time>2020-07-12T18:11:21+02:00</time>
      </trkpt>
      <trkpt lat="44.76024" lon="5.49992">
        <ele>1361</ele>
        <time>2020-07-12T18:11:26+02:00</time>
      </trkpt>
      <trkpt lat="44.76028" lon="5.49985">
        <ele>1374</ele>
        <time>2020-07-12T18:11:31+02:00</time>
      </trkpt>
      <trkpt lat="44.7603" lon="5.49981">
        <ele>1380</ele>
        <time>2020-07-12T18:11:36+02:00</time>
      </trkpt>
      <trkpt lat="44.76032" lon="5.49977">
        <ele>1385</ele>
        <time>2020-07-12T18:11:41+02:00</time>
      </trkpt>
      <trkpt lat="44.76035" lon="5.49972">
        <ele>1385</ele>
        <time>2020-07-12T18:11:46+02:00</time>
      </trkpt>
      <trkpt lat="44.76039" lon="5.49964">
        <ele>1386</ele>
        <time>2020-07-12T18:11:51+02:00</time>
      </trkpt>
      <trkpt lat="44.76041" lon="5.4996">
        <ele>1384</ele>
        <time>2020-07-12T18:11:56+02:00</time>
      </trkpt>
      <trkpt lat="44.76042" lon="5.49951">
        <ele>1393</ele>
        <time>2020-07-12T18:12:01+02:00</time>
      </trkpt>
      <trkpt lat="44.76042" lon="5.49947">
        <ele>1401</ele>
        <time>2020-07-12T18:12:06+02:00</time>
      </trkpt>
      <trkpt lat="44.76042" lon="5.4994">
        <ele>1408</ele>
        <time>2020-07-12T18:12:11+02:00</time>
      </trkpt>
      <trkpt lat="44.76039" lon="5.49938">
        <ele>1419</ele>
        <time>2020-07-12T18:12:16+02:00</time>
      </trkpt>
      <trkpt lat="44.76035" lon="5.49932">
        <ele>1439</ele>
        <time>2020-07-12T18:12:21+02:00</time>
      </trkpt>
      <trkpt lat="44.76029" lon="5.49925">
        <ele>1463</ele>
        <time>2020-07-12T18:12:26+02:00</time>
      </trkpt>
      <trkpt lat="44.76024" lon="5.4992">
        <ele>1490</ele>
        <time>2020-07-12T18:12:31+02:00</time>
      </trkpt>
      <trkpt lat="44.76019" lon="5.49915">
        <ele>1524</ele>
        <time>2020-07-12T18:12:36+02:00</time>
      </trkpt>
      <trkpt lat="44.76016" lon="5.49912">
        <ele>1546</ele>
        <time>2020-07-12T18:12:41+02:00</time>
      </trkpt>
      <trkpt lat="44.76008" lon="5.49903">
        <ele>1591</ele>
        <time>2020-07-12T18:12:46+02:00</time>
      </trkpt>
      <trkpt lat="44.76003" lon="5.49899">
        <ele>1615</ele>
        <time>2020-07-12T18:12:51+02:00</time>
      </trkpt>
      <trkpt lat="44.75999" lon="5.49896">
        <ele>1632</ele>
        <time>2020-07-12T18:12:56+02:00</time>
      </trkpt>
      <trkpt lat="44.75996" lon="5.49895">
        <ele>1631</ele>
        <time>2020-07-12T18:13:01+02:00</time>
      </trkpt>
      <trkpt lat="44.75993" lon="5.49895">
        <ele>1630</ele>
        <time>2020-07-12T18:13:06+02:00</time>
      </trkpt>
      <trkpt lat="44.75989" lon="5.49894">
        <ele>1630</ele>
        <time>2020-07-12T18:13:11+02:00</time>
      </trkpt>
      <trkpt lat="44.75986" lon="5.49894">
        <ele>1630</ele>
        <time>2020-07-12T18:13:16+02:00</time>
      </trkpt>
      <trkpt lat="44.75981" lon="5.4989">
        <ele>1634</ele>
        <time>2020-07-12T18:13:21+02:00</time>
      </trkpt>
      <trkpt lat="44.75975" lon="5.4989">
        <ele>1636</ele>
        <time>2020-07-12T18:13:26+02:00</time>
      </trkpt>
      <trkpt lat="44.75971" lon="5.49889">
        <ele>1638</ele>
        <time>2020-07-12T18:13:31+02:00</time>
      </trkpt>
      <trkpt lat="44.75967" lon="5.49887">
        <ele>1628</ele>
        <time>2020-07-12T18:13:36+02:00</time>
      </trkpt>
      <trkpt lat="44.75965" lon="5.49885">
        <ele>1623</ele>
        <time>2020-07-12T18:13:41+02:00</time>
      </trkpt>
      <trkpt lat="44.7596" lon="5.49885">
        <ele>1610</ele>
        <time>2020-07-12T18:13:46+02:00</time>
      </trkpt>
      <trkpt lat="44.75957" lon="5.49885">
        <ele>1602</ele>
        <time>2020-07-12T18:13:51+02:00</time>
      </trkpt>
      <trkpt lat="44.75952" lon="5.49885">
        <ele>1589</ele>
        <time>2020-07-12T18:13:56+02:00</time>
      </trkpt>
      <trkpt lat="44.75947" lon="5.49883">
        <ele>1580</ele>
        <time>2020-07-12T18:14:01+02:00</time>
      </trkpt>
      <trkpt lat="44.75943" lon="5.49883">
        <ele>1571</ele>
        <time>2020-07-12T18:14:06+02:00</time>
      </trkpt>
      <trkpt lat="44.75941" lon="5.49882">
        <ele>1566</ele>
        <time>2020-07-12T18:14:11+02:00</time>
      </trkpt>
      <trkpt lat="44.75938" lon="5.49882">
        <ele>1560</ele>
        <time>2020-07-12T18:14:16+02:00</time>
      </trkpt>
      <trkpt lat="44.75934" lon="5.49881">
        <ele>1557</ele>
        <time>2020-07-12T18:14:21+02:00</time>
      </trkpt>
      <trkpt lat="44.75928" lon="5.4988">
        <ele>1545</ele>
        <time>2020-07-12T18:14:26+02:00</time>
      </trkpt>
      <trkpt lat="44.75924" lon="5.49879">
        <ele>1542</ele>
        <time>2020-07-12T18:14:31+02:00</time>
      </trkpt>
      <trkpt lat="44.75923" lon="5.49879">
        <ele>1539</ele>
        <time>2020-07-12T18:14:36+02:00</time>
      </trkpt>
      <trkpt lat="44.75917" lon="5.49878">
        <ele>1527</ele>
        <time>2020-07-12T18:14:41+02:00</time>
      </trkpt>
      <trkpt lat="44.75913" lon="5.49878">
        <ele>1523</ele>
        <time>2020-07-12T18:14:46+02:00</time>
      </trkpt>
      <trkpt lat="44.7591" lon="5.49878">
        <ele>1521</ele>
        <time>2020-07-12T18:14:51+02:00</time>
      </trkpt>
      <trkpt lat="44.75907" lon="5.49877">
        <ele>1519</ele>
        <time>2020-07-12T18:14:56+02:00</time>
      </trkpt>
      <trkpt lat="44.75904" lon="5.49874">
        <ele>1529</ele>
        <time>2020-07-12T18:15:01+02:00</time>
      </trkpt>
      <trkpt lat="44.759" lon="5.49873">
        <ele>1532</ele>
        <time>2020-07-12T18:15:06+02:00</time>
      </trkpt>
      <trkpt lat="44.75897" lon="5.4987">
        <ele>1540</ele>
        <time>2020-07-12T18:15:11+02:00</time>
      </trkpt>
      <trkpt lat="44.75894" lon="5.49867">
        <ele>1549</ele>
        <time>2020-07-12T18:15:16+02:00</time>
      </trkpt>
      <trkpt lat="44.7589" lon="5.49865">
        <ele>1550</ele>
        <time>2020-07-12T18:15:21+02:00</time>
      </trkpt>
      <trkpt lat="44.75885" lon="5.49863">
        <ele>1555</ele>
        <time>2020-07-12T18:15:26+02:00</time>
      </trkpt>
      <trkpt lat="44.7588" lon="5.49863">
        <ele>1552</ele>
        <time>2020-07-12T18:15:31+02:00</time>
      </trkpt>
      <trkpt lat="44.75877" lon="5.49862">
        <ele>1553</ele>
        <time>2020-07-12T18:15:36+02:00</time>
      </trkpt>
      <trkpt lat="44.75872" lon="5.4986">
        <ele>1554</ele>
        <time>2020-07-12T18:15:41+02:00</time>
      </trkpt>
      <trkpt lat="44.75868" lon="5.49858">
        <ele>1561</ele>
        <time>2020-07-12T18:15:46+02:00</time>
      </trkpt>
      <trkpt lat="44.75865" lon="5.49857">
        <ele>1563</ele>
        <time>2020-07-12T18:15:51+02:00</time>
      </trkpt>
      <trkpt lat="44.7586" lon="5.49853">
        <ele>1574</ele>
        <time>2020-07-12T18:15:56+02:00</time>
      </trkpt>
      <trkpt lat="44.75856" lon="5.49852">
        <ele>1573</ele>
        <time>2020-07-12T18:16:01+02:00</time>
      </trkpt>
      <trkpt lat="44.75851" lon="5.49847">
        <ele>1582</ele>
        <time>2020-07-12T18:16:06+02:00</time>
      </trkpt>
      <trkpt lat="44.75847" lon="5.49843">
        <ele>1590</ele>
        <time>2020-07-12T18:16:11+02:00</time>
      </trkpt>
      <trkpt lat="44.75847" lon="5.49842">
        <ele>1593</ele>
        <time>2020-07-12T18:16:16+02:00</time>
      </trkpt>
      <trkpt lat="44.75844" lon="5.49837">
        <ele>1603</ele>
        <time>2020-07-12T18:16:21+02:00</time>
      </trkpt>
      <trkpt lat="44.75842" lon="5.49835">
        <ele>1606</ele>
        <time>2020-07-12T18:16:26+02:00</time>
      </trkpt>
      <trkpt lat="44.75839" lon="5.49833">
        <ele>1608</ele>
        <time>2020-07-12T18:16:31+02:00</time>
      </trkpt>
      <trkpt lat="44.75836" lon="5.49829">
        <ele>1610</ele>
        <time>2020-07-12T18:16:36+02:00</time>
      </trkpt>
      <trkpt lat="44.75833" lon="5.49826">
        <ele>1610</ele>
        <time>2020-07-12T18:16:41+02:00</time>
      </trkpt>
      <trkpt lat="44.75828" lon="5.4982">
        <ele>1613</ele>
        <time>2020-07-12T18:16:46+02:00</time>
      </trkpt>
      <trkpt lat="44.75825" lon="5.49819">
        <ele>1608</ele>
        <time>2020-07-12T18:16:51+02:00</time>
      </trkpt>
      <trkpt lat="44.75823" lon="5.49817">
        <ele>1606</ele>
        <time>2020-07-12T18:16:56+02:00</time>
      </trkpt>
      <trkpt lat="44.7582" lon="5.49814">
        <ele>1605</ele>
        <time>2020-07-12T18:17:01+02:00</time>
      </trkpt>
      <trkpt lat="44.75815" lon="5.49813">
        <ele>1597</ele>
        <time>2020-07-12T18:17:06+02:00</time>
      </trkpt>
      <trkpt lat="44.75813" lon="5.49811">
        <ele>1594</ele>
        <time>2020-07-12T18:17:11+02:00</time>
      </trkpt>
      <trkpt lat="44.7581" lon="5.49808">
        <ele>1595</ele>
        <time>2020-07-12T18:17:16+02:00</time>
      </trkpt>
      <trkpt lat="44.75811" lon="5.49803">
        <ele>1606</ele>
        <time>2020-07-12T18:17:21+02:00</time>
      </trkpt>
      <trkpt lat="44.7581" lon="5.49797">
        <ele>1616</ele>
        <time>2020-07-12T18:17:26+02:00</time>
      </trkpt>
      <trkpt lat="44.7581" lon="5.49793">
        <ele>1621</ele>
        <time>2020-07-12T18:17:31+02:00</time>
      </trkpt>
      <trkpt lat="44.75808" lon="5.49788">
        <ele>1628</ele>
        <time>2020-07-12T18:17:36+02:00</time>
      </trkpt>
      <trkpt lat="44.75807" lon="5.49784">
        <ele>1632</ele>
        <time>2020-07-12T18:17:41+02:00</time>
      </trkpt>
      <trkpt lat="44.75803" lon="5.49781">
        <ele>1630</ele>
        <time>2020-07-12T18:17:46+02:00</time>
      </trkpt>
      <trkpt lat="44.75801" lon="5.49778">
        <ele>1632</ele>
        <time>2020-07-12T18:17:51+02:00</time>
      </trkpt>
      <trkpt lat="44.75801" lon="5.49775">
        <ele>1637</ele>
        <time>2020-07-12T18:17:56+02:00</time>
      </trkpt>
      <trkpt lat="44.75801" lon="5.49769">
        <ele>1646</ele>
        <time>2020-07-12T18:18:01+02:00</time>
      </trkpt>
      <trkpt lat="44.75801" lon="5.49764">
        <ele>1652</ele>
        <time>2020-07-12T18:18:06+02:00</time>
      </trkpt>
      <trkpt lat="44.75799" lon="5.49761">
        <ele>1654</ele>
        <time>2020-07-12T18:18:11+02:00</time>
      </trkpt>
      <trkpt lat="44.75799" lon="5.49756">
        <ele>1662</ele>
        <time>2020-07-12T18:18:16+02:00</time>
      </trkpt>
      <trkpt lat="44.75798" lon="5.49753">
        <ele>1664</ele>
        <time>2020-07-12T18:18:21+02:00</time>
      </trkpt>
      <trkpt lat="44.75794" lon="5.49748">
        <ele>1666</ele>
        <time>2020-07-12T18:18:26+02:00</time>
      </trkpt>
      <trkpt lat="44.75792" lon="5.49745">
        <ele>1666</ele>
        <time>2020-07-12T18:18:31+02:00</time>
      </trkpt>
      <trkpt lat="44.75791" lon="5.49743">
        <ele>1667</ele>
        <time>2020-07-12T18:18:36+02:00</time>
      </trkpt>
      <trkpt lat="44.75788" lon="5.4974">
        <ele>1667</ele>
        <time>2020-07-12T18:18:41+02:00</time>
      </trkpt>
      <trkpt lat="44.75787" lon="5.49743">
        <ele>1664</ele>
        <time>2020-07-12T18:18:46+02:00</time>
      </trkpt>
      <trkpt lat="44.75786" lon="5.49746">
        <ele>1660</ele>
        <time>2020-07-12T18:18:51+02:00</time>
      </trkpt>
      <trkpt lat="44.75786" lon="5.49749">
        <ele>1658</ele>
        <time>2020-07-12T18:18:56+02:00</time>
      </trkpt>
      <trkpt lat="44.75784" lon="5.49754">
        <ele>1648</ele>
        <time>2020-07-12T18:19:01+02:00</time>
      </trkpt>
      <trkpt lat="44.75781" lon="5.49759">
        <ele>1636</ele>
        <time>2020-07-12T18:19:06+02:00</time>
      </trkpt>
      <trkpt lat="44.75781" lon="5.49762">
        <ele>1629</ele>
        <time>2020-07-12T18:19:11+02:00</time>
      </trkpt>
      <trkpt lat="44.75778" lon="5.49765">
        <ele>1619</ele>
        <time>2020-07-12T18:19:16+02:00</time>
      </trkpt>
      <trkpt lat="44.75775" lon="5.49765">
        <ele>1617</ele>
        <time>2020-07-12T18:19:21+02:00</time>
      </trkpt>
      <trkpt lat="44.75774" lon="5.49765">
        <ele>1616</ele>
        <time>2020-07-12T18:19:26+02:00</time>
      </trkpt>
      <trkpt lat="44.75771" lon="5.49763">
        <ele>1617</ele>
        <time>2020-07-12T18:19:31+02:00</time>
      </trkpt>
      <trkpt lat="44.75769" lon="5.49761">
        <ele>1620</ele>
        <time>2020-07-12T18:19:36+02:00</time>
      </trkpt>
      <trkpt lat="44.75767" lon="5.49758">
        <ele>1623</ele>
        <time>2020-07-12T18:19:41+02:00</time>
      </trkpt>
      <trkpt lat="44.75763" lon="5.49755">
        <ele>1628</ele>
        <time>2020-07-12T18:19:46+02:00</time>
      </trkpt>
      <trkpt lat="44.7576" lon="5.49753">
        <ele>1628</ele>
        <time>2020-07-12T18:19:51+02:00</time>
      </trkpt>
      <trkpt lat="44.75757" lon="5.49751">
        <ele>1632</ele>
        <time>2020-07-12T18:19:56+02:00</time>
      </trkpt>
      <trkpt lat="44.75753" lon="5.49749">
        <ele>1633</ele>
        <time>2020-07-12T18:20:01+02:00</time>
      </trkpt>
      <trkpt lat="44.75749" lon="5.49746">
        <ele>1635</ele>
        <time>2020-07-12T18:20:06+02:00</time>
      </trkpt>
      <trkpt lat="44.75744" lon="5.49744">
        <ele>1635</ele>
        <time>2020-07-12T18:20:11+02:00</time>
      </trkpt>
      <trkpt lat="44.75741" lon="5.49742">
        <ele>1635</ele>
        <time>2020-07-12T18:20:16+02:00</time>
      </trkpt>
      <trkpt lat="44.75737" lon="5.49742">
        <ele>1633</ele>
        <time>2020-07-12T18:20:21+02:00</time>
      </trkpt>
      <trkpt lat="44.75734" lon="5.49742">
        <ele>1631</ele>
        <time>2020-07-12T18:20:26+02:00</time>
      </trkpt>
      <trkpt lat="44.75732" lon="5.49741">
        <ele>1632</ele>
        <time>2020-07-12T18:20:31+02:00</time>
      </trkpt>
      <trkpt lat="44.75728" lon="5.49738">
        <ele>1635</ele>
        <time>2020-07-12T18:20:36+02:00</time>
      </trkpt>
      <trkpt lat="44.75723" lon="5.49736">
        <ele>1635</ele>
        <time>2020-07-12T18:20:41+02:00</time>
      </trkpt>
      <trkpt lat="44.75721" lon="5.49735">
        <ele>1635</ele>
        <time>2020-07-12T18:20:46+02:00</time>
      </trkpt>
      <trkpt lat="44.75717" lon="5.49733">
        <ele>1638</ele>
        <time>2020-07-12T18:20:51+02:00</time>
      </trkpt>
      <trkpt lat="44.75717" lon="5.49732">
        <ele>1639</ele>
        <time>2020-07-12T18:20:56+02:00</time>
      </trkpt>
      <trkpt lat="44.75713" lon="5.49729">
        <ele>1645</ele>
        <time>2020-07-12T18:21:01+02:00</time>
      </trkpt>
      <trkpt lat="44.75711" lon="5.49727">
        <ele>1648</ele>
        <time>2020-07-12T18:21:06+02:00</time>
      </trkpt>
      <trkpt lat="44.75706" lon="5.49725">
        <ele>1651</ele>
        <time>2020-07-12T18:21:11+02:00</time>
      </trkpt>
      <trkpt lat="44.75703" lon="5.49723">
        <ele>1652</ele>
        <time>2020-07-12T18:21:16+02:00</time>
      </trkpt>
      <trkpt lat="44.75699" lon="5.49722">
        <ele>1653</ele>
        <time>2020-07-12T18:21:21+02:00</time>
      </trkpt>
      <trkpt lat="44.75693" lon="5.49721">
        <ele>1651</ele>
        <time>2020-07-12T18:21:26+02:00</time>
      </trkpt>
      <trkpt lat="44.75692" lon="5.4972">
        <ele>1649</ele>
        <time>2020-07-12T18:21:31+02:00</time>
      </trkpt>
      <trkpt lat="44.75681" lon="5.49715">
        <ele>1637</ele>
        <time>2020-07-12T18:21:36+02:00</time>
      </trkpt>
      <trkpt lat="44.75672" lon="5.49713">
        <ele>1627</ele>
        <time>2020-07-12T18:21:41+02:00</time>
      </trkpt>
      <trkpt lat="44.75664" lon="5.49708">
        <ele>1615</ele>
        <time>2020-07-12T18:21:46+02:00</time>
      </trkpt>
      <trkpt lat="44.75654" lon="5.49704">
        <ele>1584</ele>
        <time>2020-07-12T18:21:51+02:00</time>
      </trkpt>
      <trkpt lat="44.7565" lon="5.49699">
        <ele>1575</ele>
        <time>2020-07-12T18:21:56+02:00</time>
      </trkpt>
      <trkpt lat="44.75647" lon="5.49694">
        <ele>1563</ele>
        <time>2020-07-12T18:22:01+02:00</time>
      </trkpt>
      <trkpt lat="44.75645" lon="5.49692">
        <ele>1555</ele>
        <time>2020-07-12T18:22:06+02:00</time>
      </trkpt>
      <trkpt lat="44.75641" lon="5.49684">
        <ele>1536</ele>
        <time>2020-07-12T18:22:11+02:00</time>
      </trkpt>
      <trkpt lat="44.75642" lon="5.49677">
        <ele>1533</ele>
        <time>2020-07-12T18:22:16+02:00</time>
      </trkpt>
      <trkpt lat="44.75642" lon="5.49669">
        <ele>1528</ele>
        <time>2020-07-12T18:22:21+02:00</time>
      </trkpt>
      <trkpt lat="44.75642" lon="5.49665">
        <ele>1525</ele>
        <time>2020-07-12T18:22:26+02:00</time>
      </trkpt>
      <trkpt lat="44.75642" lon="5.49663">
        <ele>1523</ele>
        <time>2020-07-12T18:22:31+02:00</time>
      </trkpt>
      <trkpt lat="44.75651" lon="5.49659">
        <ele>1547</ele>
        <time>2020-07-12T18:22:36+02:00</time>
      </trkpt>
      <trkpt lat="44.75654" lon="5.49657">
        <ele>1552</ele>
        <time>2020-07-12T18:22:41+02:00</time>
      </trkpt>
      <trkpt lat="44.75656" lon="5.49652">
        <ele>1552</ele>
        <time>2020-07-12T18:22:46+02:00</time>
      </trkpt>
      <trkpt lat="44.75658" lon="5.49648">
        <ele>1554</ele>
        <time>2020-07-12T18:22:51+02:00</time>
      </trkpt>
      <trkpt lat="44.75661" lon="5.49642">
        <ele>1552</ele>
        <time>2020-07-12T18:22:56+02:00</time>
      </trkpt>
      <trkpt lat="44.75662" lon="5.49637">
        <ele>1548</ele>
        <time>2020-07-12T18:23:01+02:00</time>
      </trkpt>
      <trkpt lat="44.75666" lon="5.49634">
        <ele>1555</ele>
        <time>2020-07-12T18:23:06+02:00</time>
      </trkpt>
      <trkpt lat="44.75667" lon="5.49629">
        <ele>1557</ele>
        <time>2020-07-12T18:23:11+02:00</time>
      </trkpt>
      <trkpt lat="44.75666" lon="5.49625">
        <ele>1552</ele>
        <time>2020-07-12T18:23:16+02:00</time>
      </trkpt>
      <trkpt lat="44.75668" lon="5.4962">
        <ele>1553</ele>
        <time>2020-07-12T18:23:21+02:00</time>
      </trkpt>
      <trkpt lat="44.75667" lon="5.49617">
        <ele>1550</ele>
        <time>2020-07-12T18:23:26+02:00</time>
      </trkpt>
      <trkpt lat="44.75668" lon="5.49611">
        <ele>1550</ele>
        <time>2020-07-12T18:23:31+02:00</time>
      </trkpt>
      <trkpt lat="44.75668" lon="5.49605">
        <ele>1548</ele>
        <time>2020-07-12T18:23:36+02:00</time>
      </trkpt>
      <trkpt lat="44.75666" lon="5.49597">
        <ele>1540</ele>
        <time>2020-07-12T18:23:41+02:00</time>
      </trkpt>
      <trkpt lat="44.75666" lon="5.49592">
        <ele>1539</ele>
        <time>2020-07-12T18:23:46+02:00</time>
      </trkpt>
      <trkpt lat="44.75663" lon="5.49582">
        <ele>1530</ele>
        <time>2020-07-12T18:23:51+02:00</time>
      </trkpt>
      <trkpt lat="44.75666" lon="5.49574">
        <ele>1536</ele>
        <time>2020-07-12T18:23:56+02:00</time>
      </trkpt>
      <trkpt lat="44.7567" lon="5.49565">
        <ele>1544</ele>
        <time>2020-07-12T18:24:01+02:00</time>
      </trkpt>
      <trkpt lat="44.75672" lon="5.49563">
        <ele>1552</ele>
        <time>2020-07-12T18:24:06+02:00</time>
      </trkpt>
      <trkpt lat="44.75671" lon="5.49556">
        <ele>1547</ele>
        <time>2020-07-12T18:24:11+02:00</time>
      </trkpt>
      <trkpt lat="44.75673" lon="5.49554">
        <ele>1553</ele>
        <time>2020-07-12T18:24:16+02:00</time>
      </trkpt>
      <trkpt lat="44.75676" lon="5.49549">
        <ele>1562</ele>
        <time>2020-07-12T18:24:21+02:00</time>
      </trkpt>
      <trkpt lat="44.75682" lon="5.49541">
        <ele>1583</ele>
        <time>2020-07-12T18:24:26+02:00</time>
      </trkpt>
      <trkpt lat="44.75682" lon="5.4953">
        <ele>1582</ele>
        <time>2020-07-12T18:24:31+02:00</time>
      </trkpt>
      <trkpt lat="44.75687" lon="5.49524">
        <ele>1597</ele>
        <time>2020-07-12T18:24:36+02:00</time>
      </trkpt>
      <trkpt lat="44.75688" lon="5.49522">
        <ele>1597</ele>
        <time>2020-07-12T18:24:41+02:00</time>
      </trkpt>
      <trkpt lat="44.75686" lon="5.49514">
        <ele>1583</ele>
        <time>2020-07-12T18:24:46+02:00</time>
      </trkpt>
      <trkpt lat="44.75689" lon="5.49508">
        <ele>1584</ele>
        <time>2020-07-12T18:24:51+02:00</time>
      </trkpt>
      <trkpt lat="44.75689" lon="5.49506">
        <ele>1580</ele>
        <time>2020-07-12T18:24:56+02:00</time>
      </trkpt>
      <trkpt lat="44.75685" lon="5.49492">
        <ele>1552</ele>
        <time>2020-07-12T18:25:01+02:00</time>
      </trkpt>
      <trkpt lat="44.75684" lon="5.49482">
        <ele>1536</ele>
        <time>2020-07-12T18:25:06+02:00</time>
      </trkpt>
      <trkpt lat="44.75685" lon="5.49477">
        <ele>1531</ele>
        <time>2020-07-12T18:25:11+02:00</time>
      </trkpt>
      <trkpt lat="44.75687" lon="5.4947">
        <ele>1532</ele>
        <time>2020-07-12T18:25:16+02:00</time>
      </trkpt>
      <trkpt lat="44.75689" lon="5.49465">
        <ele>1534</ele>
        <time>2020-07-12T18:25:21+02:00</time>
      </trkpt>
      <trkpt lat="44.75693" lon="5.49465">
        <ele>1545</ele>
        <time>2020-07-12T18:25:26+02:00</time>
      </trkpt>
      <trkpt lat="44.75703" lon="5.49472">
        <ele>1583</ele>
        <time>2020-07-12T18:25:31+02:00</time>
      </trkpt>
      <trkpt lat="44.757" lon="5.49459">
        <ele>1569</ele>
        <time>2020-07-12T18:25:36+02:00</time>
      </trkpt>
      <trkpt lat="44.75696" lon="5.49444">
        <ele>1545</ele>
        <time>2020-07-12T18:25:41+02:00</time>
      </trkpt>
      <trkpt lat="44.75688" lon="5.49427">
        <ele>1510</ele>
        <time>2020-07-12T18:25:46+02:00</time>
      </trkpt>
      <trkpt lat="44.75687" lon="5.4942">
        <ele>1503</ele>
        <time>2020-07-12T18:25:51+02:00</time>
      </trkpt>
      <trkpt lat="44.75691" lon="5.49419">
        <ele>1514</ele>
        <time>2020-07-12T18:25:56+02:00</time>
      </trkpt>
      <trkpt lat="44.75701" lon="5.49429">
        <ele>1558</ele>
        <time>2020-07-12T18:26:01+02:00</time>
      </trkpt>
      <trkpt lat="44.75708" lon="5.49434">
        <ele>1587</ele>
        <time>2020-07-12T18:26:06+02:00</time>
      </trkpt>
      <trkpt lat="44.75715" lon="5.49445">
        <ele>1619</ele>
        <time>2020-07-12T18:26:11+02:00</time>
      </trkpt>
      <trkpt lat="44.75716" lon="5.49442">
        <ele>1622</ele>
        <time>2020-07-12T18:26:16+02:00</time>
      </trkpt>
      <trkpt lat="44.75716" lon="5.49434">
        <ele>1621</ele>
        <time>2020-07-12T18:26:21+02:00</time>
      </trkpt>
      <trkpt lat="44.75715" lon="5.49425">
        <ele>1614</ele>
        <time>2020-07-12T18:26:26+02:00</time>
      </trkpt>
      <trkpt lat="44.75718" lon="5.4942">
        <ele>1622</ele>
        <time>2020-07-12T18:26:31+02:00</time>
      </trkpt>
      <trkpt lat="44.7572" lon="5.49416">
        <ele>1630</ele>
        <time>2020-07-12T18:26:36+02:00</time>
      </trkpt>
      <trkpt lat="44.75722" lon="5.49412">
        <ele>1639</ele>
        <time>2020-07-12T18:26:41+02:00</time>
      </trkpt>
      <trkpt lat="44.75721" lon="5.49401">
        <ele>1630</ele>
        <time>2020-07-12T18:26:46+02:00</time>
      </trkpt>
      <trkpt lat="44.75722" lon="5.49399">
        <ele>1634</ele>
        <time>2020-07-12T18:26:51+02:00</time>
      </trkpt>
      <trkpt lat="44.75725" lon="5.49397">
        <ele>1640</ele>
        <time>2020-07-12T18:26:56+02:00</time>
      </trkpt>
      <trkpt lat="44.75727" lon="5.49375">
        <ele>1639</ele>
        <time>2020-07-12T18:27:01+02:00</time>
      </trkpt>
      <trkpt lat="44.75731" lon="5.49371">
        <ele>1647</ele>
        <time>2020-07-12T18:27:06+02:00</time>
      </trkpt>
      <trkpt lat="44.7573" lon="5.49367">
        <ele>1642</ele>
        <time>2020-07-12T18:27:11+02:00</time>
      </trkpt>
      <trkpt lat="44.75731" lon="5.49361">
        <ele>1645</ele>
        <time>2020-07-12T18:27:16+02:00</time>
      </trkpt>
      <trkpt lat="44.75734" lon="5.49358">
        <ele>1651</ele>
        <time>2020-07-12T18:27:21+02:00</time>
      </trkpt>
      <trkpt lat="44.75737" lon="5.49353">
        <ele>1659</ele>
        <time>2020-07-12T18:27:26+02:00</time>
      </trkpt>
      <trkpt lat="44.75742" lon="5.49344">
        <ele>1672</ele>
        <time>2020-07-12T18:27:31+02:00</time>
      </trkpt>
      <trkpt lat="44.75746" lon="5.49342">
        <ele>1687</ele>
        <time>2020-07-12T18:27:36+02:00</time>
      </trkpt>
      <trkpt lat="44.7575" lon="5.49337">
        <ele>1699</ele>
        <time>2020-07-12T18:27:41+02:00</time>
      </trkpt>
      <trkpt lat="44.75752" lon="5.49333">
        <ele>1700</ele>
        <time>2020-07-12T18:27:46+02:00</time>
      </trkpt>
      <trkpt lat="44.75755" lon="5.49331">
        <ele>1701</ele>
        <time>2020-07-12T18:27:51+02:00</time>
      </trkpt>
      <trkpt lat="44.75757" lon="5.49326">
        <ele>1700</ele>
        <time>2020-07-12T18:27:56+02:00</time>
      </trkpt>
      <trkpt lat="44.75758" lon="5.4932">
        <ele>1698</ele>
        <time>2020-07-12T18:28:01+02:00</time>
      </trkpt>
      <trkpt lat="44.75758" lon="5.49313">
        <ele>1694</ele>
        <time>2020-07-12T18:28:06+02:00</time>
      </trkpt>
      <trkpt lat="44.75761" lon="5.4931">
        <ele>1696</ele>
        <time>2020-07-12T18:28:11+02:00</time>
      </trkpt>
      <trkpt lat="44.75764" lon="5.49302">
        <ele>1695</ele>
        <time>2020-07-12T18:28:16+02:00</time>
      </trkpt>
      <trkpt lat="44.75766" lon="5.49296">
        <ele>1693</ele>
        <time>2020-07-12T18:28:21+02:00</time>
      </trkpt>
      <trkpt lat="44.75767" lon="5.49291">
        <ele>1691</ele>
        <time>2020-07-12T18:28:26+02:00</time>
      </trkpt>
      <trkpt lat="44.75767" lon="5.49284">
        <ele>1687</ele>
        <time>2020-07-12T18:28:31+02:00</time>
      </trkpt>
      <trkpt lat="44.75767" lon="5.49278">
        <ele>1682</ele>
        <time>2020-07-12T18:28:36+02:00</time>
      </trkpt>
      <trkpt lat="44.75769" lon="5.49272">
        <ele>1679</ele>
        <time>2020-07-12T18:28:41+02:00</time>
      </trkpt>
      <trkpt lat="44.75771" lon="5.49268">
        <ele>1680</ele>
        <time>2020-07-12T18:28:46+02:00</time>
      </trkpt>
      <trkpt lat="44.75777" lon="5.49263">
        <ele>1687</ele>
        <time>2020-07-12T18:28:51+02:00</time>
      </trkpt>
      <trkpt lat="44.75776" lon="5.49259">
        <ele>1681</ele>
        <time>2020-07-12T18:28:56+02:00</time>
      </trkpt>
      <trkpt lat="44.75778" lon="5.49252">
        <ele>1678</ele>
        <time>2020-07-12T18:29:01+02:00</time>
      </trkpt>
      <trkpt lat="44.75779" lon="5.49247">
        <ele>1674</ele>
        <time>2020-07-12T18:29:06+02:00</time>
      </trkpt>
      <trkpt lat="44.75781" lon="5.49241">
        <ele>1668</ele>
        <time>2020-07-12T18:29:11+02:00</time>
      </trkpt>
      <trkpt lat="44.75783" lon="5.49239">
        <ele>1668</ele>
        <time>2020-07-12T18:29:16+02:00</time>
      </trkpt>
      <trkpt lat="44.75785" lon="5.49233">
        <ele>1662</ele>
        <time>2020-07-12T18:29:21+02:00</time>
      </trkpt>
      <trkpt lat="44.75789" lon="5.49229">
        <ele>1664</ele>
        <time>2020-07-12T18:29:26+02:00</time>
      </trkpt>
      <trkpt lat="44.75792" lon="5.49222">
        <ele>1660</ele>
        <time>2020-07-12T18:29:31+02:00</time>
      </trkpt>
      <trkpt lat="44.75795" lon="5.49215">
        <ele>1653</ele>
        <time>2020-07-12T18:29:36+02:00</time>
      </trkpt>
      <trkpt lat="44.75797" lon="5.49212">
        <ele>1651</ele>
        <time>2020-07-12T18:29:41+02:00</time>
      </trkpt>
      <trkpt lat="44.75799" lon="5.49205">
        <ele>1644</ele>
        <time>2020-07-12T18:29:46+02:00</time>
      </trkpt>
      <trkpt lat="44.75803" lon="5.492">
        <ele>1647</ele>
        <time>2020-07-12T18:29:51+02:00</time>
      </trkpt>
      <trkpt lat="44.75806" lon="5.49194">
        <ele>1643</ele>
        <time>2020-07-12T18:29:56+02:00</time>
      </trkpt>
      <trkpt lat="44.75808" lon="5.49192">
        <ele>1646</ele>
        <time>2020-07-12T18:30:01+02:00</time>
      </trkpt>
      <trkpt lat="44.7581" lon="5.49182">
        <ele>1637</ele>
        <time>2020-07-12T18:30:06+02:00</time>
      </trkpt>
      <trkpt lat="44.75811" lon="5.49177">
        <ele>1631</ele>
        <time>2020-07-12T18:30:11+02:00</time>
      </trkpt>
      <trkpt lat="44.75813" lon="5.49172">
        <ele>1629</ele>
        <time>2020-07-12T18:30:16+02:00</time>
      </trkpt>
      <trkpt lat="44.75816" lon="5.49168">
        <ele>1636</ele>
        <time>2020-07-12T18:30:21+02:00</time>
      </trkpt>
      <trkpt lat="44.7582" lon="5.4916">
        <ele>1638</ele>
        <time>2020-07-12T18:30:26+02:00</time>
      </trkpt>
      <trkpt lat="44.75823" lon="5.49151">
        <ele>1638</ele>
        <time>2020-07-12T18:30:31+02:00</time>
      </trkpt>
      <trkpt lat="44.75825" lon="5.49143">
        <ele>1637</ele>
        <time>2020-07-12T18:30:36+02:00</time>
      </trkpt>
      <trkpt lat="44.75827" lon="5.49139">
        <ele>1639</ele>
        <time>2020-07-12T18:30:41+02:00</time>
      </trkpt>
      <trkpt lat="44.75829" lon="5.49135">
        <ele>1640</ele>
        <time>2020-07-12T18:30:46+02:00</time>
      </trkpt>
      <trkpt lat="44.75829" lon="5.49124">
        <ele>1628</ele>
        <time>2020-07-12T18:30:51+02:00</time>
      </trkpt>
      <trkpt lat="44.7583" lon="5.49115">
        <ele>1624</ele>
        <time>2020-07-12T18:30:56+02:00</time>
      </trkpt>
      <trkpt lat="44.75832" lon="5.4911">
        <ele>1624</ele>
        <time>2020-07-12T18:31:01+02:00</time>
      </trkpt>
      <trkpt lat="44.75835" lon="5.49104">
        <ele>1624</ele>
        <time>2020-07-12T18:31:06+02:00</time>
      </trkpt>
      <trkpt lat="44.75839" lon="5.49108">
        <ele>1634</ele>
        <time>2020-07-12T18:31:11+02:00</time>
      </trkpt>
      <trkpt lat="44.75846" lon="5.49116">
        <ele>1653</ele>
        <time>2020-07-12T18:31:16+02:00</time>
      </trkpt>
      <trkpt lat="44.7585" lon="5.4912">
        <ele>1662</ele>
        <time>2020-07-12T18:31:21+02:00</time>
      </trkpt>
      <trkpt lat="44.75853" lon="5.49122">
        <ele>1667</ele>
        <time>2020-07-12T18:31:26+02:00</time>
      </trkpt>
      <trkpt lat="44.75856" lon="5.49122">
        <ele>1672</ele>
        <time>2020-07-12T18:31:31+02:00</time>
      </trkpt>
      <trkpt lat="44.75858" lon="5.49114">
        <ele>1669</ele>
        <time>2020-07-12T18:31:36+02:00</time>
      </trkpt>
      <trkpt lat="44.75859" lon="5.49109">
        <ele>1666</ele>
        <time>2020-07-12T18:31:41+02:00</time>
      </trkpt>
      <trkpt lat="44.75859" lon="5.49103">
        <ele>1662</ele>
        <time>2020-07-12T18:31:46+02:00</time>
      </trkpt>
      <trkpt lat="44.75859" lon="5.49095">
        <ele>1656</ele>
        <time>2020-07-12T18:31:51+02:00</time>
      </trkpt>
      <trkpt lat="44.75857" lon="5.49079">
        <ele>1640</ele>
        <time>2020-07-12T18:31:56+02:00</time>
      </trkpt>
      <trkpt lat="44.75857" lon="5.49074">
        <ele>1636</ele>
        <time>2020-07-12T18:32:01+02:00</time>
      </trkpt>
      <trkpt lat="44.75857" lon="5.49066">
        <ele>1630</ele>
        <time>2020-07-12T18:32:06+02:00</time>
      </trkpt>
      <trkpt lat="44.75854" lon="5.49051">
        <ele>1609</ele>
        <time>2020-07-12T18:32:11+02:00</time>
      </trkpt>
      <trkpt lat="44.75852" lon="5.49043">
        <ele>1598</ele>
        <time>2020-07-12T18:32:16+02:00</time>
      </trkpt>
      <trkpt lat="44.75847" lon="5.49029">
        <ele>1577</ele>
        <time>2020-07-12T18:32:21+02:00</time>
      </trkpt>
      <trkpt lat="44.75843" lon="5.49015">
        <ele>1556</ele>
        <time>2020-07-12T18:32:26+02:00</time>
      </trkpt>
      <trkpt lat="44.75842" lon="5.49005">
        <ele>1543</ele>
        <time>2020-07-12T18:32:31+02:00</time>
      </trkpt>
      <trkpt lat="44.75842" lon="5.48997">
        <ele>1534</ele>
        <time>2020-07-12T18:32:36+02:00</time>
      </trkpt>
      <trkpt lat="44.75844" lon="5.4899">
        <ele>1527</ele>
        <time>2020-07-12T18:32:41+02:00</time>
      </trkpt>
      <trkpt lat="44.75849" lon="5.48985">
        <ele>1529</ele>
        <time>2020-07-12T18:32:46+02:00</time>
      </trkpt>
      <trkpt lat="44.75853" lon="5.48982">
        <ele>1532</ele>
        <time>2020-07-12T18:32:51+02:00</time>
      </trkpt>
      <trkpt lat="44.75856" lon="5.48973">
        <ele>1525</ele>
        <time>2020-07-12T18:32:56+02:00</time>
      </trkpt>
      <trkpt lat="44.75857" lon="5.48967">
        <ele>1517</ele>
        <time>2020-07-12T18:33:01+02:00</time>
      </trkpt>
      <trkpt lat="44.75857" lon="5.48966">
        <ele>1515</ele>
        <time>2020-07-12T18:33:06+02:00</time>
      </trkpt>
      <trkpt lat="44.75858" lon="5.48945">
        <ele>1479</ele>
        <time>2020-07-12T18:33:11+02:00</time>
      </trkpt>
      <trkpt lat="44.75864" lon="5.48943">
        <ele>1488</ele>
        <time>2020-07-12T18:33:16+02:00</time>
      </trkpt>
      <trkpt lat="44.75866" lon="5.48945">
        <ele>1497</ele>
        <time>2020-07-12T18:33:21+02:00</time>
      </trkpt>
      <trkpt lat="44.75875" lon="5.48962">
        <ele>1547</ele>
        <time>2020-07-12T18:33:26+02:00</time>
      </trkpt>
      <trkpt lat="44.75878" lon="5.48962">
        <ele>1553</ele>
        <time>2020-07-12T18:33:31+02:00</time>
      </trkpt>
      <trkpt lat="44.75874" lon="5.48957">
        <ele>1536</ele>
        <time>2020-07-12T18:33:36+02:00</time>
      </trkpt>
      <trkpt lat="44.75874" lon="5.48951">
        <ele>1525</ele>
        <time>2020-07-12T18:33:41+02:00</time>
      </trkpt>
      <trkpt lat="44.75872" lon="5.48943">
        <ele>1507</ele>
        <time>2020-07-12T18:33:46+02:00</time>
      </trkpt>
      <trkpt lat="44.75872" lon="5.4894">
        <ele>1499</ele>
        <time>2020-07-12T18:33:51+02:00</time>
      </trkpt>
      <trkpt lat="44.75875" lon="5.48935">
        <ele>1495</ele>
        <time>2020-07-12T18:33:56+02:00</time>
      </trkpt>
      <trkpt lat="44.75879" lon="5.48929">
        <ele>1490</ele>
        <time>2020-07-12T18:34:01+02:00</time>
      </trkpt>
      <trkpt lat="44.75882" lon="5.48925">
        <ele>1488</ele>
        <time>2020-07-12T18:34:06+02:00</time>
      </trkpt>
      <trkpt lat="44.75884" lon="5.4892">
        <ele>1483</ele>
        <time>2020-07-12T18:34:11+02:00</time>
      </trkpt>
      <trkpt lat="44.75886" lon="5.48914">
        <ele>1474</ele>
        <time>2020-07-12T18:34:16+02:00</time>
      </trkpt>
      <trkpt lat="44.75887" lon="5.48908">
        <ele>1464</ele>
        <time>2020-07-12T18:34:21+02:00</time>
      </trkpt>
      <trkpt lat="44.75889" lon="5.48905">
        <ele>1461</ele>
        <time>2020-07-12T18:34:26+02:00</time>
      </trkpt>
      <trkpt lat="44.75893" lon="5.489">
        <ele>1464</ele>
        <time>2020-07-12T18:34:31+02:00</time>
      </trkpt>
      <trkpt lat="44.75895" lon="5.48898">
        <ele>1468</ele>
        <time>2020-07-12T18:34:36+02:00</time>
      </trkpt>
      <trkpt lat="44.759" lon="5.48891">
        <ele>1469</ele>
        <time>2020-07-12T18:34:41+02:00</time>
      </trkpt>
      <trkpt lat="44.75904" lon="5.48888">
        <ele>1478</ele>
        <time>2020-07-12T18:34:46+02:00</time>
      </trkpt>
      <trkpt lat="44.75909" lon="5.48888">
        <ele>1494</ele>
        <time>2020-07-12T18:34:51+02:00</time>
      </trkpt>
      <trkpt lat="44.75913" lon="5.48893">
        <ele>1522</ele>
        <time>2020-07-12T18:34:56+02:00</time>
      </trkpt>
      <trkpt lat="44.75917" lon="5.48895">
        <ele>1539</ele>
        <time>2020-07-12T18:35:01+02:00</time>
      </trkpt>
      <trkpt lat="44.75918" lon="5.48895">
        <ele>1543</ele>
        <time>2020-07-12T18:35:06+02:00</time>
      </trkpt>
      <trkpt lat="44.75925" lon="5.48897">
        <ele>1560</ele>
        <time>2020-07-12T18:35:11+02:00</time>
      </trkpt>
      <trkpt lat="44.7593" lon="5.48897">
        <ele>1572</ele>
        <time>2020-07-12T18:35:16+02:00</time>
      </trkpt>
      <trkpt lat="44.75933" lon="5.48896">
        <ele>1577</ele>
        <time>2020-07-12T18:35:21+02:00</time>
      </trkpt>
      <trkpt lat="44.75935" lon="5.48892">
        <ele>1574</ele>
        <time>2020-07-12T18:35:26+02:00</time>
      </trkpt>
      <trkpt lat="44.75935" lon="5.48886">
        <ele>1567</ele>
        <time>2020-07-12T18:35:31+02:00</time>
      </trkpt>
      <trkpt lat="44.75935" lon="5.4888">
        <ele>1561</ele>
        <time>2020-07-12T18:35:36+02:00</time>
      </trkpt>
      <trkpt lat="44.75936" lon="5.48872">
        <ele>1553</ele>
        <time>2020-07-12T18:35:41+02:00</time>
      </trkpt>
      <trkpt lat="44.75937" lon="5.48868">
        <ele>1551</ele>
        <time>2020-07-12T18:35:46+02:00</time>
      </trkpt>
      <trkpt lat="44.75938" lon="5.48863">
        <ele>1552</ele>
        <time>2020-07-12T18:35:51+02:00</time>
      </trkpt>
      <trkpt lat="44.7594" lon="5.48859">
        <ele>1554</ele>
        <time>2020-07-12T18:35:56+02:00</time>
      </trkpt>
      <trkpt lat="44.75944" lon="5.48852">
        <ele>1561</ele>
        <time>2020-07-12T18:36:01+02:00</time>
      </trkpt>
      <trkpt lat="44.75947" lon="5.48852">
        <ele>1568</ele>
        <time>2020-07-12T18:36:06+02:00</time>
      </trkpt>
      <trkpt lat="44.75951" lon="5.48853">
        <ele>1577</ele>
        <time>2020-07-12T18:36:11+02:00</time>
      </trkpt>
      <trkpt lat="44.75952" lon="5.48853">
        <ele>1580</ele>
        <time>2020-07-12T18:36:16+02:00</time>
      </trkpt>
      <trkpt lat="44.75957" lon="5.48854">
        <ele>1589</ele>
        <time>2020-07-12T18:36:21+02:00</time>
      </trkpt>
      <trkpt lat="44.75959" lon="5.48855">
        <ele>1593</ele>
        <time>2020-07-12T18:36:26+02:00</time>
      </trkpt>
      <trkpt lat="44.75962" lon="5.48855">
        <ele>1600</ele>
        <time>2020-07-12T18:36:31+02:00</time>
      </trkpt>
      <trkpt lat="44.75966" lon="5.48856">
        <ele>1607</ele>
        <time>2020-07-12T18:36:36+02:00</time>
      </trkpt>
      <trkpt lat="44.75969" lon="5.48856">
        <ele>1613</ele>
        <time>2020-07-12T18:36:41+02:00</time>
      </trkpt>
      <trkpt lat="44.75971" lon="5.48859">
        <ele>1620</ele>
        <time>2020-07-12T18:36:46+02:00</time>
      </trkpt>
      <trkpt lat="44.75973" lon="5.48858">
        <ele>1621</ele>
        <time>2020-07-12T18:36:51+02:00</time>
      </trkpt>
      <trkpt lat="44.75969" lon="5.48852">
        <ele>1612</ele>
        <time>2020-07-12T18:36:56+02:00</time>
      </trkpt>
      <trkpt lat="44.75967" lon="5.48848">
        <ele>1607</ele>
        <time>2020-07-12T18:37:01+02:00</time>
      </trkpt>
      <trkpt lat="44.75966" lon="5.48846">
        <ele>1603</ele>
        <time>2020-07-12T18:37:06+02:00</time>
      </trkpt>
      <trkpt lat="44.75964" lon="5.48841">
        <ele>1597</ele>
        <time>2020-07-12T18:37:11+02:00</time>
      </trkpt>
      <trkpt lat="44.75963" lon="5.48835">
        <ele>1592</ele>
        <time>2020-07-12T18:37:16+02:00</time>
      </trkpt>
      <trkpt lat="44.75962" lon="5.48828">
        <ele>1586</ele>
        <time>2020-07-12T18:37:21+02:00</time>
      </trkpt>
      <trkpt lat="44.75962" lon="5.48823">
        <ele>1585</ele>
        <time>2020-07-12T18:37:26+02:00</time>
      </trkpt>
      <trkpt lat="44.75963" lon="5.48814">
        <ele>1582</ele>
        <time>2020-07-12T18:37:31+02:00</time>
      </trkpt>
      <trkpt lat="44.75963" lon="5.48805">
        <ele>1577</ele>
        <time>2020-07-12T18:37:36+02:00</time>
      </trkpt>
      <trkpt lat="44.75962" lon="5.48798">
        <ele>1572</ele>
        <time>2020-07-12T18:37:41+02:00</time>
      </trkpt>
      <trkpt lat="44.75962" lon="5.48796">
        <ele>1572</ele>
        <time>2020-07-12T18:37:46+02:00</time>
      </trkpt>
      <trkpt lat="44.75964" lon="5.48788">
        <ele>1572</ele>
        <time>2020-07-12T18:37:51+02:00</time>
      </trkpt>
      <trkpt lat="44.75967" lon="5.48783">
        <ele>1576</ele>
        <time>2020-07-12T18:37:56+02:00</time>
      </trkpt>
      <trkpt lat="44.75969" lon="5.48776">
        <ele>1576</ele>
        <time>2020-07-12T18:38:01+02:00</time>
      </trkpt>
      <trkpt lat="44.75969" lon="5.48772">
        <ele>1574</ele>
        <time>2020-07-12T18:38:06+02:00</time>
      </trkpt>
      <trkpt lat="44.7597" lon="5.48765">
        <ele>1572</ele>
        <time>2020-07-12T18:38:11+02:00</time>
      </trkpt>
      <trkpt lat="44.75971" lon="5.48756">
        <ele>1569</ele>
        <time>2020-07-12T18:38:16+02:00</time>
      </trkpt>
      <trkpt lat="44.75973" lon="5.48751">
        <ele>1568</ele>
        <time>2020-07-12T18:38:21+02:00</time>
      </trkpt>
      <trkpt lat="44.75974" lon="5.48741">
        <ele>1563</ele>
        <time>2020-07-12T18:38:26+02:00</time>
      </trkpt>
      <trkpt lat="44.75976" lon="5.48736">
        <ele>1561</ele>
        <time>2020-07-12T18:38:31+02:00</time>
      </trkpt>
      <trkpt lat="44.75977" lon="5.48731">
        <ele>1558</ele>
        <time>2020-07-12T18:38:36+02:00</time>
      </trkpt>
      <trkpt lat="44.75978" lon="5.48727">
        <ele>1556</ele>
        <time>2020-07-12T18:38:41+02:00</time>
      </trkpt>
      <trkpt lat="44.75978" lon="5.48721">
        <ele>1551</ele>
        <time>2020-07-12T18:38:46+02:00</time>
      </trkpt>
      <trkpt lat="44.75977" lon="5.48713">
        <ele>1542</ele>
        <time>2020-07-12T18:38:51+02:00</time>
      </trkpt>
      <trkpt lat="44.75975" lon="5.48703">
        <ele>1529</ele>
        <time>2020-07-12T18:38:56+02:00</time>
      </trkpt>
      <trkpt lat="44.75974" lon="5.48696">
        <ele>1521</ele>
        <time>2020-07-12T18:39:01+02:00</time>
      </trkpt>
      <trkpt lat="44.75972" lon="5.48689">
        <ele>1512</ele>
        <time>2020-07-12T18:39:06+02:00</time>
      </trkpt>
      <trkpt lat="44.75971" lon="5.48684">
        <ele>1507</ele>
        <time>2020-07-12T18:39:11+02:00</time>
      </trkpt>
      <trkpt lat="44.7597" lon="5.48677">
        <ele>1498</ele>
        <time>2020-07-12T18:39:16+02:00</time>
      </trkpt>
      <trkpt lat="44.75971" lon="5.48672">
        <ele>1495</ele>
        <time>2020-07-12T18:39:21+02:00</time>
      </trkpt>
      <trkpt lat="44.75971" lon="5.48665">
        <ele>1489</ele>
        <time>2020-07-12T18:39:26+02:00</time>
      </trkpt>
      <trkpt lat="44.75972" lon="5.48656">
        <ele>1484</ele>
        <time>2020-07-12T18:39:31+02:00</time>
      </trkpt>
      <trkpt lat="44.75972" lon="5.4865">
        <ele>1481</ele>
        <time>2020-07-12T18:39:36+02:00</time>
      </trkpt>
      <trkpt lat="44.75974" lon="5.48642">
        <ele>1478</ele>
        <time>2020-07-12T18:39:41+02:00</time>
      </trkpt>
      <trkpt lat="44.75978" lon="5.48646">
        <ele>1485</ele>
        <time>2020-07-12T18:39:46+02:00</time>
      </trkpt>
      <trkpt lat="44.75977" lon="5.48651">
        <ele>1487</ele>
        <time>2020-07-12T18:39:51+02:00</time>
      </trkpt>
      <trkpt lat="44.75979" lon="5.48662">
        <ele>1496</ele>
        <time>2020-07-12T18:39:56+02:00</time>
      </trkpt>
      <trkpt lat="44.7598" lon="5.48674">
        <ele>1508</ele>
        <time>2020-07-12T18:40:01+02:00</time>
      </trkpt>
      <trkpt lat="44.75982" lon="5.48679">
        <ele>1513</ele>
        <time>2020-07-12T18:40:06+02:00</time>
      </trkpt>
      <trkpt lat="44.75984" lon="5.48689">
        <ele>1524</ele>
        <time>2020-07-12T18:40:11+02:00</time>
      </trkpt>
      <trkpt lat="44.75986" lon="5.48695">
        <ele>1531</ele>
        <time>2020-07-12T18:40:16+02:00</time>
      </trkpt>
      <trkpt lat="44.75987" lon="5.48703">
        <ele>1540</ele>
        <time>2020-07-12T18:40:21+02:00</time>
      </trkpt>
      <trkpt lat="44.75987" lon="5.48711">
        <ele>1548</ele>
        <time>2020-07-12T18:40:26+02:00</time>
      </trkpt>
      <trkpt lat="44.75988" lon="5.48716">
        <ele>1555</ele>
        <time>2020-07-12T18:40:31+02:00</time>
      </trkpt>
      <trkpt lat="44.75992" lon="5.48714">
        <ele>1556</ele>
        <time>2020-07-12T18:40:36+02:00</time>
      </trkpt>
      <trkpt lat="44.75994" lon="5.48707">
        <ele>1550</ele>
        <time>2020-07-12T18:40:41+02:00</time>
      </trkpt>
      <trkpt lat="44.75996" lon="5.48699">
        <ele>1543</ele>
        <time>2020-07-12T18:40:46+02:00</time>
      </trkpt>
      <trkpt lat="44.75999" lon="5.48697">
        <ele>1544</ele>
        <time>2020-07-12T18:40:51+02:00</time>
      </trkpt>
      <trkpt lat="44.76004" lon="5.48697">
        <ele>1548</ele>
        <time>2020-07-12T18:40:56+02:00</time>
      </trkpt>
      <trkpt lat="44.76009" lon="5.48699">
        <ele>1552</ele>
        <time>2020-07-12T18:41:01+02:00</time>
      </trkpt>
      <trkpt lat="44.76015" lon="5.487">
        <ele>1555</ele>
        <time>2020-07-12T18:41:06+02:00</time>
      </trkpt>
      <trkpt lat="44.76018" lon="5.48701">
        <ele>1558</ele>
        <time>2020-07-12T18:41:11+02:00</time>
      </trkpt>
      <trkpt lat="44.76023" lon="5.48703">
        <ele>1562</ele>
        <time>2020-07-12T18:41:16+02:00</time>
      </trkpt>
      <trkpt lat="44.76026" lon="5.48704">
        <ele>1565</ele>
        <time>2020-07-12T18:41:21+02:00</time>
      </trkpt>
      <trkpt lat="44.7603" lon="5.48706">
        <ele>1568</ele>
        <time>2020-07-12T18:41:26+02:00</time>
      </trkpt>
      <trkpt lat="44.76032" lon="5.48707">
        <ele>1569</ele>
        <time>2020-07-12T18:41:31+02:00</time>
      </trkpt>
      <trkpt lat="44.76036" lon="5.48708">
        <ele>1573</ele>
        <time>2020-07-12T18:41:36+02:00</time>
      </trkpt>
      <trkpt lat="44.76039" lon="5.48705">
        <ele>1570</ele>
        <time>2020-07-12T18:41:41+02:00</time>
      </trkpt>
      <trkpt lat="44.76042" lon="5.48703">
        <ele>1570</ele>
        <time>2020-07-12T18:41:46+02:00</time>
      </trkpt>
      <trkpt lat="44.76045" lon="5.48699">
        <ele>1567</ele>
        <time>2020-07-12T18:41:51+02:00</time>
      </trkpt>
      <trkpt lat="44.76049" lon="5.48696">
        <ele>1565</ele>
        <time>2020-07-12T18:41:56+02:00</time>
      </trkpt>
      <trkpt lat="44.76052" lon="5.48691">
        <ele>1563</ele>
        <time>2020-07-12T18:42:01+02:00</time>
      </trkpt>
      <trkpt lat="44.76055" lon="5.4869">
        <ele>1562</ele>
        <time>2020-07-12T18:42:06+02:00</time>
      </trkpt>
      <trkpt lat="44.76059" lon="5.48688">
        <ele>1563</ele>
        <time>2020-07-12T18:42:11+02:00</time>
      </trkpt>
      <trkpt lat="44.76062" lon="5.48689">
        <ele>1565</ele>
        <time>2020-07-12T18:42:16+02:00</time>
      </trkpt>
      <trkpt lat="44.76064" lon="5.48689">
        <ele>1565</ele>
        <time>2020-07-12T18:42:21+02:00</time>
      </trkpt>
      <trkpt lat="44.76067" lon="5.48686">
        <ele>1563</ele>
        <time>2020-07-12T18:42:26+02:00</time>
      </trkpt>
      <trkpt lat="44.76107" lon="5.48645">
        <ele>1531</ele>
        <time>2020-07-12T18:42:31+02:00</time>
      </trkpt>
      <trkpt lat="44.76132" lon="5.4862">
        <ele>1517</ele>
        <time>2020-07-12T18:42:36+02:00</time>
      </trkpt>
      <trkpt lat="44.76136" lon="5.48621">
        <ele>1521</ele>
        <time>2020-07-12T18:42:41+02:00</time>
      </trkpt>
      <trkpt lat="44.7614" lon="5.48623">
        <ele>1526</ele>
        <time>2020-07-12T18:42:46+02:00</time>
      </trkpt>
      <trkpt lat="44.76143" lon="5.48622">
        <ele>1529</ele>
        <time>2020-07-12T18:42:51+02:00</time>
      </trkpt>
      <trkpt lat="44.76146" lon="5.48618">
        <ele>1529</ele>
        <time>2020-07-12T18:42:56+02:00</time>
      </trkpt>
      <trkpt lat="44.76148" lon="5.48609">
        <ele>1521</ele>
        <time>2020-07-12T18:43:01+02:00</time>
      </trkpt>
      <trkpt lat="44.76149" lon="5.48605">
        <ele>1519</ele>
        <time>2020-07-12T18:43:06+02:00</time>
      </trkpt>
      <trkpt lat="44.76152" lon="5.48602">
        <ele>1519</ele>
        <time>2020-07-12T18:43:11+02:00</time>
      </trkpt>
      <trkpt lat="44.76156" lon="5.48597">
        <ele>1519</ele>
        <time>2020-07-12T18:43:16+02:00</time>
      </trkpt>
      <trkpt lat="44.76158" lon="5.48592">
        <ele>1517</ele>
        <time>2020-07-12T18:43:21+02:00</time>
      </trkpt>
      <trkpt lat="44.76163" lon="5.48591">
        <ele>1521</ele>
        <time>2020-07-12T18:43:26+02:00</time>
      </trkpt>
      <trkpt lat="44.76168" lon="5.48592">
        <ele>1529</ele>
        <time>2020-07-12T18:43:31+02:00</time>
      </trkpt>
      <trkpt lat="44.76173" lon="5.48591">
        <ele>1532</ele>
        <time>2020-07-12T18:43:36+02:00</time>
      </trkpt>
      <trkpt lat="44.76179" lon="5.48592">
        <ele>1539</ele>
        <time>2020-07-12T18:43:41+02:00</time>
      </trkpt>
      <trkpt lat="44.76181" lon="5.48593">
        <ele>1542</ele>
        <time>2020-07-12T18:43:46+02:00</time>
      </trkpt>
      <trkpt lat="44.76185" lon="5.48591">
        <ele>1544</ele>
        <time>2020-07-12T18:43:51+02:00</time>
      </trkpt>
      <trkpt lat="44.76191" lon="5.48591">
        <ele>1549</ele>
        <time>2020-07-12T18:43:56+02:00</time>
      </trkpt>
      <trkpt lat="44.76195" lon="5.48592">
        <ele>1554</ele>
        <time>2020-07-12T18:44:01+02:00</time>
      </trkpt>
      <trkpt lat="44.76198" lon="5.48595">
        <ele>1558</ele>
        <time>2020-07-12T18:44:06+02:00</time>
      </trkpt>
      <trkpt lat="44.76202" lon="5.48596">
        <ele>1561</ele>
        <time>2020-07-12T18:44:11+02:00</time>
      </trkpt>
      <trkpt lat="44.76205" lon="5.48598">
        <ele>1564</ele>
        <time>2020-07-12T18:44:16+02:00</time>
      </trkpt>
      <trkpt lat="44.76208" lon="5.48599">
        <ele>1567</ele>
        <time>2020-07-12T18:44:21+02:00</time>
      </trkpt>
      <trkpt lat="44.76212" lon="5.48601">
        <ele>1570</ele>
        <time>2020-07-12T18:44:26+02:00</time>
      </trkpt>
      <trkpt lat="44.76216" lon="5.48602">
        <ele>1573</ele>
        <time>2020-07-12T18:44:31+02:00</time>
      </trkpt>
      <trkpt lat="44.7622" lon="5.48604">
        <ele>1576</ele>
        <time>2020-07-12T18:44:36+02:00</time>
      </trkpt>
      <trkpt lat="44.76223" lon="5.48601">
        <ele>1576</ele>
        <time>2020-07-12T18:44:41+02:00</time>
      </trkpt>
      <trkpt lat="44.76227" lon="5.48598">
        <ele>1576</ele>
        <time>2020-07-12T18:44:46+02:00</time>
      </trkpt>
      <trkpt lat="44.7623" lon="5.48594">
        <ele>1575</ele>
        <time>2020-07-12T18:44:51+02:00</time>
      </trkpt>
      <trkpt lat="44.76234" lon="5.48589">
        <ele>1575</ele>
        <time>2020-07-12T18:44:56+02:00</time>
      </trkpt>
      <trkpt lat="44.76237" lon="5.48588">
        <ele>1576</ele>
        <time>2020-07-12T18:45:01+02:00</time>
      </trkpt>
      <trkpt lat="44.7624" lon="5.48585">
        <ele>1575</ele>
        <time>2020-07-12T18:45:06+02:00</time>
      </trkpt>
      <trkpt lat="44.76244" lon="5.4858">
        <ele>1575</ele>
        <time>2020-07-12T18:45:11+02:00</time>
      </trkpt>
      <trkpt lat="44.76247" lon="5.48578">
        <ele>1575</ele>
        <time>2020-07-12T18:45:16+02:00</time>
      </trkpt>
      <trkpt lat="44.76252" lon="5.48579">
        <ele>1579</ele>
        <time>2020-07-12T18:45:21+02:00</time>
      </trkpt>
      <trkpt lat="44.76255" lon="5.4858">
        <ele>1582</ele>
        <time>2020-07-12T18:45:26+02:00</time>
      </trkpt>
      <trkpt lat="44.76257" lon="5.48581">
        <ele>1583</ele>
        <time>2020-07-12T18:45:31+02:00</time>
      </trkpt>
      <trkpt lat="44.76258" lon="5.48585">
        <ele>1587</ele>
        <time>2020-07-12T18:45:36+02:00</time>
      </trkpt>
      <trkpt lat="44.76258" lon="5.48591">
        <ele>1591</ele>
        <time>2020-07-12T18:45:41+02:00</time>
      </trkpt>
      <trkpt lat="44.76258" lon="5.48592">
        <ele>1592</ele>
        <time>2020-07-12T18:45:46+02:00</time>
      </trkpt>
      <trkpt lat="44.76262" lon="5.4859">
        <ele>1593</ele>
        <time>2020-07-12T18:45:51+02:00</time>
      </trkpt>
      <trkpt lat="44.76265" lon="5.48587">
        <ele>1594</ele>
        <time>2020-07-12T18:45:56+02:00</time>
      </trkpt>
      <trkpt lat="44.76269" lon="5.48585">
        <ele>1595</ele>
        <time>2020-07-12T18:46:01+02:00</time>
      </trkpt>
      <trkpt lat="44.76271" lon="5.48586">
        <ele>1597</ele>
        <time>2020-07-12T18:46:06+02:00</time>
      </trkpt>
      <trkpt lat="44.76276" lon="5.48587">
        <ele>1600</ele>
        <time>2020-07-12T18:46:11+02:00</time>
      </trkpt>
      <trkpt lat="44.76278" lon="5.4859">
        <ele>1603</ele>
        <time>2020-07-12T18:46:16+02:00</time>
      </trkpt>
      <trkpt lat="44.7628" lon="5.4859">
        <ele>1604</ele>
        <time>2020-07-12T18:46:21+02:00</time>
      </trkpt>
      <trkpt lat="44.76282" lon="5.48593">
        <ele>1607</ele>
        <time>2020-07-12T18:46:26+02:00</time>
      </trkpt>
      <trkpt lat="44.76286" lon="5.48597">
        <ele>1611</ele>
        <time>2020-07-12T18:46:31+02:00</time>
      </trkpt>
      <trkpt lat="44.76291" lon="5.486">
        <ele>1616</ele>
        <time>2020-07-12T18:46:36+02:00</time>
      </trkpt>
      <trkpt lat="44.76294" lon="5.48602">
        <ele>1619</ele>
        <time>2020-07-12T18:46:41+02:00</time>
      </trkpt>
      <trkpt lat="44.76294" lon="5.48608">
        <ele>1622</ele>
        <time>2020-07-12T18:46:46+02:00</time>
      </trkpt>
      <trkpt lat="44.76295" lon="5.48614">
        <ele>1626</ele>
        <time>2020-07-12T18:46:51+02:00</time>
      </trkpt>
      <trkpt lat="44.76294" lon="5.48619">
        <ele>1628</ele>
        <time>2020-07-12T18:46:56+02:00</time>
      </trkpt>
      <trkpt lat="44.76296" lon="5.48623">
        <ele>1631</ele>
        <time>2020-07-12T18:47:01+02:00</time>
      </trkpt>
      <trkpt lat="44.76298" lon="5.48628">
        <ele>1635</ele>
        <time>2020-07-12T18:47:06+02:00</time>
      </trkpt>
      <trkpt lat="44.763" lon="5.48631">
        <ele>1638</ele>
        <time>2020-07-12T18:47:11+02:00</time>
      </trkpt>
      <trkpt lat="44.76303" lon="5.48635">
        <ele>1642</ele>
        <time>2020-07-12T18:47:16+02:00</time>
      </trkpt>
      <trkpt lat="44.76305" lon="5.48633">
        <ele>1642</ele>
        <time>2020-07-12T18:47:21+02:00</time>
      </trkpt>
      <trkpt lat="44.76306" lon="5.48627">
        <ele>1640</ele>
        <time>2020-07-12T18:47:26+02:00</time>
      </trkpt>
      <trkpt lat="44.76306" lon="5.48623">
        <ele>1638</ele>
        <time>2020-07-12T18:47:31+02:00</time>
      </trkpt>
      <trkpt lat="44.76306" lon="5.48617">
        <ele>1635</ele>
        <time>2020-07-12T18:47:36+02:00</time>
      </trkpt>
      <trkpt lat="44.76307" lon="5.48605">
        <ele>1629</ele>
        <time>2020-07-12T18:47:41+02:00</time>
      </trkpt>
      <trkpt lat="44.76308" lon="5.48599">
        <ele>1626</ele>
        <time>2020-07-12T18:47:46+02:00</time>
      </trkpt>
      <trkpt lat="44.76309" lon="5.48594">
        <ele>1624</ele>
        <time>2020-07-12T18:47:51+02:00</time>
      </trkpt>
      <trkpt lat="44.7631" lon="5.48583">
        <ele>1618</ele>
        <time>2020-07-12T18:47:56+02:00</time>
      </trkpt>
      <trkpt lat="44.76311" lon="5.48577">
        <ele>1615</ele>
        <time>2020-07-12T18:48:01+02:00</time>
      </trkpt>
      <trkpt lat="44.76312" lon="5.48568">
        <ele>1610</ele>
        <time>2020-07-12T18:48:06+02:00</time>
      </trkpt>
      <trkpt lat="44.76314" lon="5.48557">
        <ele>1604</ele>
        <time>2020-07-12T18:48:11+02:00</time>
      </trkpt>
      <trkpt lat="44.76316" lon="5.48547">
        <ele>1597</ele>
        <time>2020-07-12T18:48:16+02:00</time>
      </trkpt>
      <trkpt lat="44.76318" lon="5.48538">
        <ele>1590</ele>
        <time>2020-07-12T18:48:21+02:00</time>
      </trkpt>
      <trkpt lat="44.76319" lon="5.48532">
        <ele>1586</ele>
        <time>2020-07-12T18:48:26+02:00</time>
      </trkpt>
      <trkpt lat="44.76319" lon="5.48531">
        <ele>1585</ele>
        <time>2020-07-12T18:48:31+02:00</time>
      </trkpt>
      <trkpt lat="44.76321" lon="5.48519">
        <ele>1576</ele>
        <time>2020-07-12T18:48:36+02:00</time>
      </trkpt>
      <trkpt lat="44.76322" lon="5.48513">
        <ele>1573</ele>
        <time>2020-07-12T18:48:41+02:00</time>
      </trkpt>
      <trkpt lat="44.76323" lon="5.48512">
        <ele>1572</ele>
        <time>2020-07-12T18:48:46+02:00</time>
      </trkpt>
      <trkpt lat="44.76328" lon="5.48501">
        <ele>1570</ele>
        <time>2020-07-12T18:48:51+02:00</time>
      </trkpt>
      <trkpt lat="44.76331" lon="5.48493">
        <ele>1567</ele>
        <time>2020-07-12T18:48:56+02:00</time>
      </trkpt>
      <trkpt lat="44.76331" lon="5.48492">
        <ele>1566</ele>
        <time>2020-07-12T18:49:01+02:00</time>
      </trkpt>
      <trkpt lat="44.76331" lon="5.48482">
        <ele>1559</ele>
        <time>2020-07-12T18:49:06+02:00</time>
      </trkpt>
      <trkpt lat="44.76331" lon="5.48474">
        <ele>1553</ele>
        <time>2020-07-12T18:49:11+02:00</time>
      </trkpt>
      <trkpt lat="44.76332" lon="5.48466">
        <ele>1547</ele>
        <time>2020-07-12T18:49:16+02:00</time>
      </trkpt>
      <trkpt lat="44.76331" lon="5.48461">
        <ele>1541</ele>
        <time>2020-07-12T18:49:21+02:00</time>
      </trkpt>
      <trkpt lat="44.76338" lon="5.4846">
        <ele>1552</ele>
        <time>2020-07-12T18:49:26+02:00</time>
      </trkpt>
      <trkpt lat="44.76344" lon="5.48455">
        <ele>1556</ele>
        <time>2020-07-12T18:49:31+02:00</time>
      </trkpt>
      <trkpt lat="44.76347" lon="5.48454">
        <ele>1559</ele>
        <time>2020-07-12T18:49:36+02:00</time>
      </trkpt>
      <trkpt lat="44.76351" lon="5.48449">
        <ele>1563</ele>
        <time>2020-07-12T18:49:41+02:00</time>
      </trkpt>
      <trkpt lat="44.76359" lon="5.48439">
        <ele>1567</ele>
        <time>2020-07-12T18:49:46+02:00</time>
      </trkpt>
      <trkpt lat="44.76365" lon="5.48435">
        <ele>1569</ele>
        <time>2020-07-12T18:49:51+02:00</time>
      </trkpt>
      <trkpt lat="44.76368" lon="5.48431">
        <ele>1568</ele>
        <time>2020-07-12T18:49:56+02:00</time>
      </trkpt>
      <trkpt lat="44.76369" lon="5.48426">
        <ele>1565</ele>
        <time>2020-07-12T18:50:01+02:00</time>
      </trkpt>
      <trkpt lat="44.7637" lon="5.48418">
        <ele>1559</ele>
        <time>2020-07-12T18:50:06+02:00</time>
      </trkpt>
      <trkpt lat="44.76372" lon="5.48404">
        <ele>1545</ele>
        <time>2020-07-12T18:50:11+02:00</time>
      </trkpt>
      <trkpt lat="44.76375" lon="5.48399">
        <ele>1543</ele>
        <time>2020-07-12T18:50:16+02:00</time>
      </trkpt>
      <trkpt lat="44.76379" lon="5.484">
        <ele>1548</ele>
        <time>2020-07-12T18:50:21+02:00</time>
      </trkpt>
      <trkpt lat="44.76382" lon="5.48402">
        <ele>1552</ele>
        <time>2020-07-12T18:50:26+02:00</time>
      </trkpt>
      <trkpt lat="44.76387" lon="5.48404">
        <ele>1559</ele>
        <time>2020-07-12T18:50:31+02:00</time>
      </trkpt>
      <trkpt lat="44.76394" lon="5.48407">
        <ele>1566</ele>
        <time>2020-07-12T18:50:36+02:00</time>
      </trkpt>
      <trkpt lat="44.76396" lon="5.48408">
        <ele>1568</ele>
        <time>2020-07-12T18:50:41+02:00</time>
      </trkpt>
      <trkpt lat="44.764" lon="5.4841">
        <ele>1571</ele>
        <time>2020-07-12T18:50:46+02:00</time>
      </trkpt>
      <trkpt lat="44.76406" lon="5.48408">
        <ele>1572</ele>
        <time>2020-07-12T18:50:51+02:00</time>
      </trkpt>
      <trkpt lat="44.7641" lon="5.48405">
        <ele>1571</ele>
        <time>2020-07-12T18:50:56+02:00</time>
      </trkpt>
      <trkpt lat="44.76415" lon="5.48402">
        <ele>1571</ele>
        <time>2020-07-12T18:51:01+02:00</time>
      </trkpt>
      <trkpt lat="44.76417" lon="5.48403">
        <ele>1573</ele>
        <time>2020-07-12T18:51:06+02:00</time>
      </trkpt>
      <trkpt lat="44.76418" lon="5.48407">
        <ele>1577</ele>
        <time>2020-07-12T18:51:11+02:00</time>
      </trkpt>
      <trkpt lat="44.76421" lon="5.48415">
        <ele>1586</ele>
        <time>2020-07-12T18:51:16+02:00</time>
      </trkpt>
      <trkpt lat="44.76422" lon="5.48415">
        <ele>1587</ele>
        <time>2020-07-12T18:51:21+02:00</time>
      </trkpt>
      <trkpt lat="44.76426" lon="5.48419">
        <ele>1592</ele>
        <time>2020-07-12T18:51:26+02:00</time>
      </trkpt>
      <trkpt lat="44.7643" lon="5.4842">
        <ele>1594</ele>
        <time>2020-07-12T18:51:31+02:00</time>
      </trkpt>
      <trkpt lat="44.76431" lon="5.48421">
        <ele>1595</ele>
        <time>2020-07-12T18:51:36+02:00</time>
      </trkpt>
      <trkpt lat="44.76435" lon="5.48418">
        <ele>1594</ele>
        <time>2020-07-12T18:51:41+02:00</time>
      </trkpt>
      <trkpt lat="44.76435" lon="5.48415">
        <ele>1591</ele>
        <time>2020-07-12T18:51:46+02:00</time>
      </trkpt>
      <trkpt lat="44.76436" lon="5.48401">
        <ele>1576</ele>
        <time>2020-07-12T18:51:51+02:00</time>
      </trkpt>
      <trkpt lat="44.76436" lon="5.48388">
        <ele>1561</ele>
        <time>2020-07-12T18:51:56+02:00</time>
      </trkpt>
      <trkpt lat="44.76485" lon="5.48394">
        <ele>1600</ele>
        <time>2020-07-12T18:52:01+02:00</time>
      </trkpt>
      <trkpt lat="44.76518" lon="5.48391">
        <ele>1609</ele>
        <time>2020-07-12T18:52:06+02:00</time>
      </trkpt>
      <trkpt lat="44.76525" lon="5.48391">
        <ele>1609</ele>
        <time>2020-07-12T18:52:11+02:00</time>
      </trkpt>
      <trkpt lat="44.76529" lon="5.48392">
        <ele>1610</ele>
        <time>2020-07-12T18:52:16+02:00</time>
      </trkpt>
      <trkpt lat="44.76534" lon="5.48394">
        <ele>1610</ele>
        <time>2020-07-12T18:52:21+02:00</time>
      </trkpt>
      <trkpt lat="44.76538" lon="5.48395">
        <ele>1610</ele>
        <time>2020-07-12T18:52:26+02:00</time>
      </trkpt>
      <trkpt lat="44.76542" lon="5.48399">
        <ele>1612</ele>
        <time>2020-07-12T18:52:31+02:00</time>
      </trkpt>
      <trkpt lat="44.76545" lon="5.484">
        <ele>1613</ele>
        <time>2020-07-12T18:52:36+02:00</time>
      </trkpt>
      <trkpt lat="44.76549" lon="5.48401">
        <ele>1613</ele>
        <time>2020-07-12T18:52:41+02:00</time>
      </trkpt>
      <trkpt lat="44.76558" lon="5.48406">
        <ele>1613</ele>
        <time>2020-07-12T18:52:46+02:00</time>
      </trkpt>
      <trkpt lat="44.76561" lon="5.48407">
        <ele>1612</ele>
        <time>2020-07-12T18:52:51+02:00</time>
      </trkpt>
      <trkpt lat="44.76566" lon="5.48409">
        <ele>1611</ele>
        <time>2020-07-12T18:52:56+02:00</time>
      </trkpt>
      <trkpt lat="44.76571" lon="5.4841">
        <ele>1609</ele>
        <time>2020-07-12T18:53:01+02:00</time>
      </trkpt>
      <trkpt lat="44.76574" lon="5.48411">
        <ele>1608</ele>
        <time>2020-07-12T18:53:06+02:00</time>
      </trkpt>
      <trkpt lat="44.76581" lon="5.48413">
        <ele>1606</ele>
        <time>2020-07-12T18:53:11+02:00</time>
      </trkpt>
      <trkpt lat="44.76586" lon="5.48415">
        <ele>1604</ele>
        <time>2020-07-12T18:53:16+02:00</time>
      </trkpt>
      <trkpt lat="44.76593" lon="5.48414">
        <ele>1601</ele>
        <time>2020-07-12T18:53:21+02:00</time>
      </trkpt>
      <trkpt lat="44.76596" lon="5.48409">
        <ele>1596</ele>
        <time>2020-07-12T18:53:26+02:00</time>
      </trkpt>
      <trkpt lat="44.766" lon="5.48405">
        <ele>1592</ele>
        <time>2020-07-12T18:53:31+02:00</time>
      </trkpt>
      <trkpt lat="44.76605" lon="5.48402">
        <ele>1588</ele>
        <time>2020-07-12T18:53:36+02:00</time>
      </trkpt>
      <trkpt lat="44.76608" lon="5.48401">
        <ele>1586</ele>
        <time>2020-07-12T18:53:41+02:00</time>
      </trkpt>
      <trkpt lat="44.76612" lon="5.48401">
        <ele>1584</ele>
        <time>2020-07-12T18:53:46+02:00</time>
      </trkpt>
      <trkpt lat="44.76615" lon="5.48402">
        <ele>1584</ele>
        <time>2020-07-12T18:53:51+02:00</time>
      </trkpt>
      <trkpt lat="44.76618" lon="5.48404">
        <ele>1584</ele>
        <time>2020-07-12T18:53:56+02:00</time>
      </trkpt>
      <trkpt lat="44.76622" lon="5.48407">
        <ele>1585</ele>
        <time>2020-07-12T18:54:01+02:00</time>
      </trkpt>
      <trkpt lat="44.76625" lon="5.48409">
        <ele>1585</ele>
        <time>2020-07-12T18:54:06+02:00</time>
      </trkpt>
      <trkpt lat="44.76632" lon="5.48412">
        <ele>1585</ele>
        <time>2020-07-12T18:54:11+02:00</time>
      </trkpt>
      <trkpt lat="44.76636" lon="5.48414">
        <ele>1585</ele>
        <time>2020-07-12T18:54:16+02:00</time>
      </trkpt>
      <trkpt lat="44.76638" lon="5.48417">
        <ele>1587</ele>
        <time>2020-07-12T18:54:21+02:00</time>
      </trkpt>
      <trkpt lat="44.7664" lon="5.48417">
        <ele>1586</ele>
        <time>2020-07-12T18:54:26+02:00</time>
      </trkpt>
      <trkpt lat="44.76642" lon="5.48418">
        <ele>1585</ele>
        <time>2020-07-12T18:54:31+02:00</time>
      </trkpt>
      <trkpt lat="44.76648" lon="5.48418">
        <ele>1583</ele>
        <time>2020-07-12T18:54:36+02:00</time>
      </trkpt>
      <trkpt lat="44.76653" lon="5.48419">
        <ele>1582</ele>
        <time>2020-07-12T18:54:41+02:00</time>
      </trkpt>
      <trkpt lat="44.76654" lon="5.48422">
        <ele>1583</ele>
        <time>2020-07-12T18:54:46+02:00</time>
      </trkpt>
      <trkpt lat="44.76657" lon="5.48433">
        <ele>1589</ele>
        <time>2020-07-12T18:54:51+02:00</time>
      </trkpt>
      <trkpt lat="44.76658" lon="5.48437">
        <ele>1591</ele>
        <time>2020-07-12T18:54:56+02:00</time>
      </trkpt>
      <trkpt lat="44.76662" lon="5.48441">
        <ele>1592</ele>
        <time>2020-07-12T18:55:01+02:00</time>
      </trkpt>
      <trkpt lat="44.76665" lon="5.48443">
        <ele>1593</ele>
        <time>2020-07-12T18:55:06+02:00</time>
      </trkpt>
      <trkpt lat="44.76668" lon="5.48446">
        <ele>1593</ele>
        <time>2020-07-12T18:55:11+02:00</time>
      </trkpt>
      <trkpt lat="44.76671" lon="5.48446">
        <ele>1591</ele>
        <time>2020-07-12T18:55:16+02:00</time>
      </trkpt>
      <trkpt lat="44.76674" lon="5.48446">
        <ele>1589</ele>
        <time>2020-07-12T18:55:21+02:00</time>
      </trkpt>
      <trkpt lat="44.76678" lon="5.48448">
        <ele>1587</ele>
        <time>2020-07-12T18:55:26+02:00</time>
      </trkpt>
      <trkpt lat="44.76681" lon="5.4845">
        <ele>1587</ele>
        <time>2020-07-12T18:55:31+02:00</time>
      </trkpt>
      <trkpt lat="44.76684" lon="5.4845">
        <ele>1585</ele>
        <time>2020-07-12T18:55:36+02:00</time>
      </trkpt>
      <trkpt lat="44.76688" lon="5.48451">
        <ele>1582</ele>
        <time>2020-07-12T18:55:41+02:00</time>
      </trkpt>
      <trkpt lat="44.7669" lon="5.48448">
        <ele>1579</ele>
        <time>2020-07-12T18:55:46+02:00</time>
      </trkpt>
      <trkpt lat="44.76693" lon="5.48446">
        <ele>1576</ele>
        <time>2020-07-12T18:55:51+02:00</time>
      </trkpt>
      <trkpt lat="44.76696" lon="5.48444">
        <ele>1573</ele>
        <time>2020-07-12T18:55:56+02:00</time>
      </trkpt>
      <trkpt lat="44.767" lon="5.4844">
        <ele>1568</ele>
        <time>2020-07-12T18:56:01+02:00</time>
      </trkpt>
      <trkpt lat="44.76703" lon="5.48439">
        <ele>1565</ele>
        <time>2020-07-12T18:56:06+02:00</time>
      </trkpt>
      <trkpt lat="44.76707" lon="5.48437">
        <ele>1561</ele>
        <time>2020-07-12T18:56:11+02:00</time>
      </trkpt>
      <trkpt lat="44.76711" lon="5.48437">
        <ele>1559</ele>
        <time>2020-07-12T18:56:16+02:00</time>
      </trkpt>
      <trkpt lat="44.76714" lon="5.4844">
        <ele>1559</ele>
        <time>2020-07-12T18:56:21+02:00</time>
      </trkpt>
      <trkpt lat="44.76717" lon="5.48442">
        <ele>1558</ele>
        <time>2020-07-12T18:56:26+02:00</time>
      </trkpt>
      <trkpt lat="44.7672" lon="5.48446">
        <ele>1560</ele>
        <time>2020-07-12T18:56:31+02:00</time>
      </trkpt>
      <trkpt lat="44.76751" lon="5.48484">
        <ele>1580</ele>
        <time>2020-07-12T18:56:36+02:00</time>
      </trkpt>
      <trkpt lat="44.76752" lon="5.48485">
        <ele>1580</ele>
        <time>2020-07-12T18:56:41+02:00</time>
      </trkpt>
      <trkpt lat="44.76756" lon="5.48489">
        <ele>1581</ele>
        <time>2020-07-12T18:56:46+02:00</time>
      </trkpt>
      <trkpt lat="44.7676" lon="5.48492">
        <ele>1581</ele>
        <time>2020-07-12T18:56:51+02:00</time>
      </trkpt>
      <trkpt lat="44.76763" lon="5.48493">
        <ele>1581</ele>
        <time>2020-07-12T18:56:56+02:00</time>
      </trkpt>
      <trkpt lat="44.76765" lon="5.48494">
        <ele>1581</ele>
        <time>2020-07-12T18:57:01+02:00</time>
      </trkpt>
      <trkpt lat="44.76769" lon="5.48497">
        <ele>1582</ele>
        <time>2020-07-12T18:57:06+02:00</time>
      </trkpt>
      <trkpt lat="44.76772" lon="5.48497">
        <ele>1581</ele>
        <time>2020-07-12T18:57:11+02:00</time>
      </trkpt>
      <trkpt lat="44.76775" lon="5.48497">
        <ele>1580</ele>
        <time>2020-07-12T18:57:16+02:00</time>
      </trkpt>
      <trkpt lat="44.76779" lon="5.48497">
        <ele>1579</ele>
        <time>2020-07-12T18:57:21+02:00</time>
      </trkpt>
      <trkpt lat="44.76781" lon="5.48496">
        <ele>1578</ele>
        <time>2020-07-12T18:57:26+02:00</time>
      </trkpt>
      <trkpt lat="44.76784" lon="5.48497">
        <ele>1578</ele>
        <time>2020-07-12T18:57:31+02:00</time>
      </trkpt>
      <trkpt lat="44.76789" lon="5.48496">
        <ele>1578</ele>
        <time>2020-07-12T18:57:36+02:00</time>
      </trkpt>
      <trkpt lat="44.76794" lon="5.48494">
        <ele>1576</ele>
        <time>2020-07-12T18:57:41+02:00</time>
      </trkpt>
      <trkpt lat="44.76797" lon="5.48493">
        <ele>1576</ele>
        <time>2020-07-12T18:57:46+02:00</time>
      </trkpt>
      <trkpt lat="44.76802" lon="5.4849">
        <ele>1574</ele>
        <time>2020-07-12T18:57:51+02:00</time>
      </trkpt>
      <trkpt lat="44.76805" lon="5.48488">
        <ele>1572</ele>
        <time>2020-07-12T18:57:56+02:00</time>
      </trkpt>
      <trkpt lat="44.76812" lon="5.48489">
        <ele>1574</ele>
        <time>2020-07-12T18:58:01+02:00</time>
      </trkpt>
      <trkpt lat="44.76818" lon="5.48488">
        <ele>1575</ele>
        <time>2020-07-12T18:58:06+02:00</time>
      </trkpt>
      <trkpt lat="44.76824" lon="5.48489">
        <ele>1577</ele>
        <time>2020-07-12T18:58:11+02:00</time>
      </trkpt>
      <trkpt lat="44.76829" lon="5.48489">
        <ele>1578</ele>
        <time>2020-07-12T18:58:16+02:00</time>
      </trkpt>
      <trkpt lat="44.76831" lon="5.48488">
        <ele>1578</ele>
        <time>2020-07-12T18:58:21+02:00</time>
      </trkpt>
      <trkpt lat="44.76836" lon="5.48487">
        <ele>1578</ele>
        <time>2020-07-12T18:58:26+02:00</time>
      </trkpt>
      <trkpt lat="44.76839" lon="5.48488">
        <ele>1579</ele>
        <time>2020-07-12T18:58:31+02:00</time>
      </trkpt>
      <trkpt lat="44.76844" lon="5.48488">
        <ele>1579</ele>
        <time>2020-07-12T18:58:36+02:00</time>
      </trkpt>
      <trkpt lat="44.76848" lon="5.48488">
        <ele>1580</ele>
        <time>2020-07-12T18:58:41+02:00</time>
      </trkpt>
      <trkpt lat="44.76851" lon="5.48489">
        <ele>1580</ele>
        <time>2020-07-12T18:58:46+02:00</time>
      </trkpt>
      <trkpt lat="44.76855" lon="5.48489">
        <ele>1581</ele>
        <time>2020-07-12T18:58:51+02:00</time>
      </trkpt>
      <trkpt lat="44.76859" lon="5.48489">
        <ele>1582</ele>
        <time>2020-07-12T18:58:56+02:00</time>
      </trkpt>
      <trkpt lat="44.76864" lon="5.4849">
        <ele>1582</ele>
        <time>2020-07-12T18:59:01+02:00</time>
      </trkpt>
      <trkpt lat="44.76868" lon="5.48488">
        <ele>1581</ele>
        <time>2020-07-12T18:59:06+02:00</time>
      </trkpt>
      <trkpt lat="44.76871" lon="5.48487">
        <ele>1580</ele>
        <time>2020-07-12T18:59:11+02:00</time>
      </trkpt>
      <trkpt lat="44.76875" lon="5.48487">
        <ele>1581</ele>
        <time>2020-07-12T18:59:16+02:00</time>
      </trkpt>
      <trkpt lat="44.76878" lon="5.48488">
        <ele>1581</ele>
        <time>2020-07-12T18:59:21+02:00</time>
      </trkpt>
      <trkpt lat="44.76882" lon="5.48488">
        <ele>1581</ele>
        <time>2020-07-12T18:59:26+02:00</time>
      </trkpt>
      <trkpt lat="44.76885" lon="5.48488">
        <ele>1582</ele>
        <time>2020-07-12T18:59:31+02:00</time>
      </trkpt>
      <trkpt lat="44.76888" lon="5.48488">
        <ele>1582</ele>
        <time>2020-07-12T18:59:36+02:00</time>
      </trkpt>
      <trkpt lat="44.7689" lon="5.48487">
        <ele>1581</ele>
        <time>2020-07-12T18:59:41+02:00</time>
      </trkpt>
      <trkpt lat="44.76892" lon="5.48487">
        <ele>1581</ele>
        <time>2020-07-12T18:59:46+02:00</time>
      </trkpt>
      <trkpt lat="44.76896" lon="5.48485">
        <ele>1580</ele>
        <time>2020-07-12T18:59:51+02:00</time>
      </trkpt>
      <trkpt lat="44.76898" lon="5.48484">
        <ele>1579</ele>
        <time>2020-07-12T18:59:56+02:00</time>
      </trkpt>
      <trkpt lat="44.76901" lon="5.48483">
        <ele>1579</ele>
        <time>2020-07-12T19:00:01+02:00</time>
      </trkpt>
      <trkpt lat="44.76905" lon="5.48481">
        <ele>1577</ele>
        <time>2020-07-12T19:00:06+02:00</time>
      </trkpt>
      <trkpt lat="44.76909" lon="5.48479">
        <ele>1576</ele>
        <time>2020-07-12T19:00:11+02:00</time>
      </trkpt>
      <trkpt lat="44.76912" lon="5.48477">
        <ele>1575</ele>
        <time>2020-07-12T19:00:16+02:00</time>
      </trkpt>
      <trkpt lat="44.76918" lon="5.48476">
        <ele>1574</ele>
        <time>2020-07-12T19:00:21+02:00</time>
      </trkpt>
      <trkpt lat="44.7692" lon="5.48476">
        <ele>1574</ele>
        <time>2020-07-12T19:00:26+02:00</time>
      </trkpt>
      <trkpt lat="44.76924" lon="5.48478">
        <ele>1575</ele>
        <time>2020-07-12T19:00:31+02:00</time>
      </trkpt>
      <trkpt lat="44.76926" lon="5.48484">
        <ele>1578</ele>
        <time>2020-07-12T19:00:36+02:00</time>
      </trkpt>
      <trkpt lat="44.76927" lon="5.48486">
        <ele>1579</ele>
        <time>2020-07-12T19:00:41+02:00</time>
      </trkpt>
      <trkpt lat="44.7693" lon="5.4849">
        <ele>1581</ele>
        <time>2020-07-12T19:00:46+02:00</time>
      </trkpt>
      <trkpt lat="44.76934" lon="5.48491">
        <ele>1582</ele>
        <time>2020-07-12T19:00:51+02:00</time>
      </trkpt>
      <trkpt lat="44.76938" lon="5.48491">
        <ele>1582</ele>
        <time>2020-07-12T19:00:56+02:00</time>
      </trkpt>
      <trkpt lat="44.76941" lon="5.48491">
        <ele>1581</ele>
        <time>2020-07-12T19:01:01+02:00</time>
      </trkpt>
      <trkpt lat="44.76945" lon="5.48491">
        <ele>1581</ele>
        <time>2020-07-12T19:01:06+02:00</time>
      </trkpt>
      <trkpt lat="44.76947" lon="5.48492">
        <ele>1581</ele>
        <time>2020-07-12T19:01:11+02:00</time>
      </trkpt>
      <trkpt lat="44.7695" lon="5.48492">
        <ele>1580</ele>
        <time>2020-07-12T19:01:16+02:00</time>
      </trkpt>
      <trkpt lat="44.76954" lon="5.48492">
        <ele>1580</ele>
        <time>2020-07-12T19:01:21+02:00</time>
      </trkpt>
      <trkpt lat="44.7696" lon="5.48492">
        <ele>1579</ele>
        <time>2020-07-12T19:01:26+02:00</time>
      </trkpt>
      <trkpt lat="44.76963" lon="5.48492">
        <ele>1578</ele>
        <time>2020-07-12T19:01:31+02:00</time>
      </trkpt>
      <trkpt lat="44.76968" lon="5.48492">
        <ele>1578</ele>
        <time>2020-07-12T19:01:36+02:00</time>
      </trkpt>
      <trkpt lat="44.7697" lon="5.48492">
        <ele>1577</ele>
        <time>2020-07-12T19:01:41+02:00</time>
      </trkpt>
      <trkpt lat="44.76974" lon="5.48491">
        <ele>1576</ele>
        <time>2020-07-12T19:01:46+02:00</time>
      </trkpt>
      <trkpt lat="44.76979" lon="5.4849">
        <ele>1576</ele>
        <time>2020-07-12T19:01:51+02:00</time>
      </trkpt>
      <trkpt lat="44.76981" lon="5.48489">
        <ele>1575</ele>
        <time>2020-07-12T19:01:56+02:00</time>
      </trkpt>
      <trkpt lat="44.76987" lon="5.48489">
        <ele>1575</ele>
        <time>2020-07-12T19:02:01+02:00</time>
      </trkpt>
      <trkpt lat="44.76991" lon="5.48489">
        <ele>1575</ele>
        <time>2020-07-12T19:02:06+02:00</time>
      </trkpt>
      <trkpt lat="44.76993" lon="5.48496">
        <ele>1578</ele>
        <time>2020-07-12T19:02:11+02:00</time>
      </trkpt>
      <trkpt lat="44.76996" lon="5.485">
        <ele>1579</ele>
        <time>2020-07-12T19:02:16+02:00</time>
      </trkpt>
      <trkpt lat="44.76999" lon="5.48501">
        <ele>1579</ele>
        <time>2020-07-12T19:02:21+02:00</time>
      </trkpt>
      <trkpt lat="44.77002" lon="5.48503">
        <ele>1580</ele>
        <time>2020-07-12T19:02:26+02:00</time>
      </trkpt>
      <trkpt lat="44.77006" lon="5.48504">
        <ele>1579</ele>
        <time>2020-07-12T19:02:31+02:00</time>
      </trkpt>
      <trkpt lat="44.7701" lon="5.48507">
        <ele>1580</ele>
        <time>2020-07-12T19:02:36+02:00</time>
      </trkpt>
      <trkpt lat="44.77015" lon="5.48511">
        <ele>1580</ele>
        <time>2020-07-12T19:02:41+02:00</time>
      </trkpt>
      <trkpt lat="44.77019" lon="5.48513">
        <ele>1581</ele>
        <time>2020-07-12T19:02:46+02:00</time>
      </trkpt>
      <trkpt lat="44.77023" lon="5.48514">
        <ele>1580</ele>
        <time>2020-07-12T19:02:51+02:00</time>
      </trkpt>
      <trkpt lat="44.77027" lon="5.48515">
        <ele>1581</ele>
        <time>2020-07-12T19:02:56+02:00</time>
      </trkpt>
      <trkpt lat="44.7703" lon="5.48519">
        <ele>1581</ele>
        <time>2020-07-12T19:03:01+02:00</time>
      </trkpt>
      <trkpt lat="44.77032" lon="5.48523">
        <ele>1582</ele>
        <time>2020-07-12T19:03:06+02:00</time>
      </trkpt>
      <trkpt lat="44.77035" lon="5.48524">
        <ele>1582</ele>
        <time>2020-07-12T19:03:11+02:00</time>
      </trkpt>
      <trkpt lat="44.77038" lon="5.48526">
        <ele>1582</ele>
        <time>2020-07-12T19:03:16+02:00</time>
      </trkpt>
      <trkpt lat="44.77042" lon="5.48529">
        <ele>1582</ele>
        <time>2020-07-12T19:03:21+02:00</time>
      </trkpt>
      <trkpt lat="44.77044" lon="5.48531">
        <ele>1582</ele>
        <time>2020-07-12T19:03:26+02:00</time>
      </trkpt>
      <trkpt lat="44.77047" lon="5.48535">
        <ele>1583</ele>
        <time>2020-07-12T19:03:31+02:00</time>
      </trkpt>
      <trkpt lat="44.77051" lon="5.48539">
        <ele>1584</ele>
        <time>2020-07-12T19:03:36+02:00</time>
      </trkpt>
      <trkpt lat="44.77054" lon="5.48541">
        <ele>1584</ele>
        <time>2020-07-12T19:03:41+02:00</time>
      </trkpt>
      <trkpt lat="44.77056" lon="5.48543">
        <ele>1584</ele>
        <time>2020-07-12T19:03:46+02:00</time>
      </trkpt>
      <trkpt lat="44.7706" lon="5.48547">
        <ele>1583</ele>
        <time>2020-07-12T19:03:51+02:00</time>
      </trkpt>
      <trkpt lat="44.77064" lon="5.48549">
        <ele>1582</ele>
        <time>2020-07-12T19:03:56+02:00</time>
      </trkpt>
      <trkpt lat="44.77065" lon="5.48553">
        <ele>1582</ele>
        <time>2020-07-12T19:04:01+02:00</time>
      </trkpt>
      <trkpt lat="44.77067" lon="5.48558">
        <ele>1583</ele>
        <time>2020-07-12T19:04:06+02:00</time>
      </trkpt>
      <trkpt lat="44.77068" lon="5.48562">
        <ele>1584</ele>
        <time>2020-07-12T19:04:11+02:00</time>
      </trkpt>
      <trkpt lat="44.77069" lon="5.4857">
        <ele>1587</ele>
        <time>2020-07-12T19:04:16+02:00</time>
      </trkpt>
      <trkpt lat="44.77071" lon="5.48574">
        <ele>1588</ele>
        <time>2020-07-12T19:04:21+02:00</time>
      </trkpt>
      <trkpt lat="44.77073" lon="5.48575">
        <ele>1587</ele>
        <time>2020-07-12T19:04:26+02:00</time>
      </trkpt>
      <trkpt lat="44.77077" lon="5.48573">
        <ele>1585</ele>
        <time>2020-07-12T19:04:31+02:00</time>
      </trkpt>
      <trkpt lat="44.77078" lon="5.48572">
        <ele>1584</ele>
        <time>2020-07-12T19:04:36+02:00</time>
      </trkpt>
      <trkpt lat="44.77082" lon="5.48572">
        <ele>1582</ele>
        <time>2020-07-12T19:04:41+02:00</time>
      </trkpt>
      <trkpt lat="44.77088" lon="5.48568">
        <ele>1578</ele>
        <time>2020-07-12T19:04:46+02:00</time>
      </trkpt>
      <trkpt lat="44.7709" lon="5.48568">
        <ele>1577</ele>
        <time>2020-07-12T19:04:51+02:00</time>
      </trkpt>
      <trkpt lat="44.77105" lon="5.48567">
        <ele>1572</ele>
        <time>2020-07-12T19:04:56+02:00</time>
      </trkpt>
      <trkpt lat="44.77109" lon="5.48567">
        <ele>1570</ele>
        <time>2020-07-12T19:05:01+02:00</time>
      </trkpt>
      <trkpt lat="44.77114" lon="5.48572">
        <ele>1573</ele>
        <time>2020-07-12T19:05:06+02:00</time>
      </trkpt>
      <trkpt lat="44.77118" lon="5.48576">
        <ele>1576</ele>
        <time>2020-07-12T19:05:11+02:00</time>
      </trkpt>
      <trkpt lat="44.77119" lon="5.48578">
        <ele>1577</ele>
        <time>2020-07-12T19:05:16+02:00</time>
      </trkpt>
      <trkpt lat="44.77123" lon="5.48583">
        <ele>1580</ele>
        <time>2020-07-12T19:05:21+02:00</time>
      </trkpt>
      <trkpt lat="44.77126" lon="5.48583">
        <ele>1580</ele>
        <time>2020-07-12T19:05:26+02:00</time>
      </trkpt>
      <trkpt lat="44.77129" lon="5.48581">
        <ele>1580</ele>
        <time>2020-07-12T19:05:31+02:00</time>
      </trkpt>
      <trkpt lat="44.7713" lon="5.48576">
        <ele>1577</ele>
        <time>2020-07-12T19:05:36+02:00</time>
      </trkpt>
      <trkpt lat="44.77131" lon="5.48569">
        <ele>1574</ele>
        <time>2020-07-12T19:05:41+02:00</time>
      </trkpt>
      <trkpt lat="44.77133" lon="5.48566">
        <ele>1572</ele>
        <time>2020-07-12T19:05:46+02:00</time>
      </trkpt>
      <trkpt lat="44.77136" lon="5.48548">
        <ele>1564</ele>
        <time>2020-07-12T19:05:51+02:00</time>
      </trkpt>
      <trkpt lat="44.7713" lon="5.48531">
        <ele>1554</ele>
        <time>2020-07-12T19:05:56+02:00</time>
      </trkpt>
      <trkpt lat="44.77126" lon="5.48533">
        <ele>1554</ele>
        <time>2020-07-12T19:06:01+02:00</time>
      </trkpt>
      <trkpt lat="44.77122" lon="5.48535">
        <ele>1554</ele>
        <time>2020-07-12T19:06:06+02:00</time>
      </trkpt>
      <trkpt lat="44.7712" lon="5.48537">
        <ele>1555</ele>
        <time>2020-07-12T19:06:11+02:00</time>
      </trkpt>
      <trkpt lat="44.77115" lon="5.48537">
        <ele>1553</ele>
        <time>2020-07-12T19:06:16+02:00</time>
      </trkpt>
      <trkpt lat="44.7711" lon="5.48536">
        <ele>1552</ele>
        <time>2020-07-12T19:06:21+02:00</time>
      </trkpt>
      <trkpt lat="44.77108" lon="5.48536">
        <ele>1554</ele>
        <time>2020-07-12T19:06:26+02:00</time>
      </trkpt>
      <trkpt lat="44.77106" lon="5.48536">
        <ele>1555</ele>
        <time>2020-07-12T19:06:31+02:00</time>
      </trkpt>
      <trkpt lat="44.771" lon="5.48536">
        <ele>1558</ele>
        <time>2020-07-12T19:06:36+02:00</time>
      </trkpt>
      <trkpt lat="44.77096" lon="5.48536">
        <ele>1560</ele>
        <time>2020-07-12T19:06:41+02:00</time>
      </trkpt>
      <trkpt lat="44.77092" lon="5.48538">
        <ele>1563</ele>
        <time>2020-07-12T19:06:46+02:00</time>
      </trkpt>
      <trkpt lat="44.77089" lon="5.48542">
        <ele>1566</ele>
        <time>2020-07-12T19:06:51+02:00</time>
      </trkpt>
      <trkpt lat="44.77087" lon="5.48543">
        <ele>1567</ele>
        <time>2020-07-12T19:06:56+02:00</time>
      </trkpt>
      <trkpt lat="44.77084" lon="5.48536">
        <ele>1566</ele>
        <time>2020-07-12T19:07:01+02:00</time>
      </trkpt>
      <trkpt lat="44.77083" lon="5.48532">
        <ele>1564</ele>
        <time>2020-07-12T19:07:06+02:00</time>
      </trkpt>
      <trkpt lat="44.77083" lon="5.48527">
        <ele>1563</ele>
        <time>2020-07-12T19:07:11+02:00</time>
      </trkpt>
      <trkpt lat="44.77083" lon="5.4852">
        <ele>1561</ele>
        <time>2020-07-12T19:07:16+02:00</time>
      </trkpt>
      <trkpt lat="44.77083" lon="5.48512">
        <ele>1558</ele>
        <time>2020-07-12T19:07:21+02:00</time>
      </trkpt>
      <trkpt lat="44.77083" lon="5.48505">
        <ele>1556</ele>
        <time>2020-07-12T19:07:26+02:00</time>
      </trkpt>
      <trkpt lat="44.77084" lon="5.48499">
        <ele>1553</ele>
        <time>2020-07-12T19:07:31+02:00</time>
      </trkpt>
      <trkpt lat="44.77088" lon="5.48497">
        <ele>1549</ele>
        <time>2020-07-12T19:07:36+02:00</time>
      </trkpt>
      <trkpt lat="44.77093" lon="5.48497">
        <ele>1546</ele>
        <time>2020-07-12T19:07:41+02:00</time>
      </trkpt>
      <trkpt lat="44.77095" lon="5.48497">
        <ele>1544</ele>
        <time>2020-07-12T19:07:46+02:00</time>
      </trkpt>
      <trkpt lat="44.771" lon="5.48498">
        <ele>1542</ele>
        <time>2020-07-12T19:07:51+02:00</time>
      </trkpt>
      <trkpt lat="44.77105" lon="5.48498">
        <ele>1538</ele>
        <time>2020-07-12T19:07:56+02:00</time>
      </trkpt>
      <trkpt lat="44.77108" lon="5.48499">
        <ele>1537</ele>
        <time>2020-07-12T19:08:01+02:00</time>
      </trkpt>
      <trkpt lat="44.7711" lon="5.48495">
        <ele>1534</ele>
        <time>2020-07-12T19:08:06+02:00</time>
      </trkpt>
      <trkpt lat="44.77111" lon="5.4849">
        <ele>1531</ele>
        <time>2020-07-12T19:08:11+02:00</time>
      </trkpt>
      <trkpt lat="44.77115" lon="5.48483">
        <ele>1528</ele>
        <time>2020-07-12T19:08:16+02:00</time>
      </trkpt>
      <trkpt lat="44.77116" lon="5.48481">
        <ele>1526</ele>
        <time>2020-07-12T19:08:21+02:00</time>
      </trkpt>
      <trkpt lat="44.77121" lon="5.48474">
        <ele>1522</ele>
        <time>2020-07-12T19:08:26+02:00</time>
      </trkpt>
      <trkpt lat="44.77126" lon="5.48473">
        <ele>1521</ele>
        <time>2020-07-12T19:08:31+02:00</time>
      </trkpt>
      <trkpt lat="44.7713" lon="5.48473">
        <ele>1520</ele>
        <time>2020-07-12T19:08:36+02:00</time>
      </trkpt>
      <trkpt lat="44.77132" lon="5.48473">
        <ele>1520</ele>
        <time>2020-07-12T19:08:41+02:00</time>
      </trkpt>
      <trkpt lat="44.77128" lon="5.48466">
        <ele>1517</ele>
        <time>2020-07-12T19:08:46+02:00</time>
      </trkpt>
      <trkpt lat="44.77124" lon="5.48461">
        <ele>1515</ele>
        <time>2020-07-12T19:08:51+02:00</time>
      </trkpt>
      <trkpt lat="44.77125" lon="5.48454">
        <ele>1511</ele>
        <time>2020-07-12T19:08:56+02:00</time>
      </trkpt>
      <trkpt lat="44.77127" lon="5.48442">
        <ele>1504</ele>
        <time>2020-07-12T19:09:01+02:00</time>
      </trkpt>
      <trkpt lat="44.77127" lon="5.48435">
        <ele>1501</ele>
        <time>2020-07-12T19:09:06+02:00</time>
      </trkpt>
      <trkpt lat="44.77125" lon="5.48431">
        <ele>1500</ele>
        <time>2020-07-12T19:09:11+02:00</time>
      </trkpt>
      <trkpt lat="44.77124" lon="5.48423">
        <ele>1498</ele>
        <time>2020-07-12T19:09:16+02:00</time>
      </trkpt>
      <trkpt lat="44.77122" lon="5.48417">
        <ele>1497</ele>
        <time>2020-07-12T19:09:21+02:00</time>
      </trkpt>
      <trkpt lat="44.77121" lon="5.48412">
        <ele>1495</ele>
        <time>2020-07-12T19:09:26+02:00</time>
      </trkpt>
      <trkpt lat="44.77123" lon="5.48407">
        <ele>1493</ele>
        <time>2020-07-12T19:09:31+02:00</time>
      </trkpt>
      <trkpt lat="44.77124" lon="5.48402">
        <ele>1491</ele>
        <time>2020-07-12T19:09:36+02:00</time>
      </trkpt>
      <trkpt lat="44.77118" lon="5.48396">
        <ele>1490</ele>
        <time>2020-07-12T19:09:41+02:00</time>
      </trkpt>
      <trkpt lat="44.77112" lon="5.48392">
        <ele>1490</ele>
        <time>2020-07-12T19:09:46+02:00</time>
      </trkpt>
      <trkpt lat="44.7711" lon="5.4839">
        <ele>1490</ele>
        <time>2020-07-12T19:09:51+02:00</time>
      </trkpt>
      <trkpt lat="44.77107" lon="5.48389">
        <ele>1490</ele>
        <time>2020-07-12T19:09:56+02:00</time>
      </trkpt>
      <trkpt lat="44.77106" lon="5.48385">
        <ele>1490</ele>
        <time>2020-07-12T19:10:01+02:00</time>
      </trkpt>
      <trkpt lat="44.77104" lon="5.48379">
        <ele>1488</ele>
        <time>2020-07-12T19:10:06+02:00</time>
      </trkpt>
      <trkpt lat="44.77105" lon="5.48371">
        <ele>1485</ele>
        <time>2020-07-12T19:10:11+02:00</time>
      </trkpt>
      <trkpt lat="44.77105" lon="5.48364">
        <ele>1483</ele>
        <time>2020-07-12T19:10:16+02:00</time>
      </trkpt>
      <trkpt lat="44.77108" lon="5.48357">
        <ele>1479</ele>
        <time>2020-07-12T19:10:21+02:00</time>
      </trkpt>
      <trkpt lat="44.77109" lon="5.48354">
        <ele>1478</ele>
        <time>2020-07-12T19:10:26+02:00</time>
      </trkpt>
      <trkpt lat="44.77116" lon="5.48351">
        <ele>1475</ele>
        <time>2020-07-12T19:10:31+02:00</time>
      </trkpt>
      <trkpt lat="44.77119" lon="5.48348">
        <ele>1473</ele>
        <time>2020-07-12T19:10:36+02:00</time>
      </trkpt>
      <trkpt lat="44.77124" lon="5.48346">
        <ele>1470</ele>
        <time>2020-07-12T19:10:41+02:00</time>
      </trkpt>
      <trkpt lat="44.77127" lon="5.48342">
        <ele>1468</ele>
        <time>2020-07-12T19:10:46+02:00</time>
      </trkpt>
      <trkpt lat="44.77123" lon="5.48339">
        <ele>1467</ele>
        <time>2020-07-12T19:10:51+02:00</time>
      </trkpt>
      <trkpt lat="44.7712" lon="5.48334">
        <ele>1466</ele>
        <time>2020-07-12T19:10:56+02:00</time>
      </trkpt>
      <trkpt lat="44.77117" lon="5.4833">
        <ele>1465</ele>
        <time>2020-07-12T19:11:01+02:00</time>
      </trkpt>
      <trkpt lat="44.77116" lon="5.48326">
        <ele>1464</ele>
        <time>2020-07-12T19:11:06+02:00</time>
      </trkpt>
      <trkpt lat="44.77114" lon="5.48321">
        <ele>1462</ele>
        <time>2020-07-12T19:11:11+02:00</time>
      </trkpt>
      <trkpt lat="44.77111" lon="5.48319">
        <ele>1462</ele>
        <time>2020-07-12T19:11:16+02:00</time>
      </trkpt>
      <trkpt lat="44.77108" lon="5.48319">
        <ele>1462</ele>
        <time>2020-07-12T19:11:21+02:00</time>
      </trkpt>
      <trkpt lat="44.77105" lon="5.48312">
        <ele>1459</ele>
        <time>2020-07-12T19:11:26+02:00</time>
      </trkpt>
      <trkpt lat="44.77108" lon="5.48308">
        <ele>1457</ele>
        <time>2020-07-12T19:11:31+02:00</time>
      </trkpt>
      <trkpt lat="44.77112" lon="5.48306">
        <ele>1456</ele>
        <time>2020-07-12T19:11:36+02:00</time>
      </trkpt>
      <trkpt lat="44.77112" lon="5.48304">
        <ele>1455</ele>
        <time>2020-07-12T19:11:41+02:00</time>
      </trkpt>
      <trkpt lat="44.77112" lon="5.48298">
        <ele>1452</ele>
        <time>2020-07-12T19:11:46+02:00</time>
      </trkpt>
      <trkpt lat="44.77108" lon="5.48292">
        <ele>1450</ele>
        <time>2020-07-12T19:11:51+02:00</time>
      </trkpt>
      <trkpt lat="44.77104" lon="5.48289">
        <ele>1448</ele>
        <time>2020-07-12T19:11:56+02:00</time>
      </trkpt>
      <trkpt lat="44.77101" lon="5.48285">
        <ele>1446</ele>
        <time>2020-07-12T19:12:01+02:00</time>
      </trkpt>
      <trkpt lat="44.77097" lon="5.48281">
        <ele>1444</ele>
        <time>2020-07-12T19:12:06+02:00</time>
      </trkpt>
      <trkpt lat="44.77095" lon="5.48279">
        <ele>1442</ele>
        <time>2020-07-12T19:12:11+02:00</time>
      </trkpt>
      <trkpt lat="44.7709" lon="5.48274">
        <ele>1440</ele>
        <time>2020-07-12T19:12:16+02:00</time>
      </trkpt>
      <trkpt lat="44.77088" lon="5.48274">
        <ele>1440</ele>
        <time>2020-07-12T19:12:21+02:00</time>
      </trkpt>
      <trkpt lat="44.77082" lon="5.48273">
        <ele>1440</ele>
        <time>2020-07-12T19:12:26+02:00</time>
      </trkpt>
      <trkpt lat="44.77079" lon="5.48273">
        <ele>1441</ele>
        <time>2020-07-12T19:12:31+02:00</time>
      </trkpt>
      <trkpt lat="44.77076" lon="5.48269">
        <ele>1440</ele>
        <time>2020-07-12T19:12:36+02:00</time>
      </trkpt>
      <trkpt lat="44.77074" lon="5.48262">
        <ele>1438</ele>
        <time>2020-07-12T19:12:41+02:00</time>
      </trkpt>
      <trkpt lat="44.77082" lon="5.48255">
        <ele>1434</ele>
        <time>2020-07-12T19:12:46+02:00</time>
      </trkpt>
      <trkpt lat="44.77084" lon="5.48251">
        <ele>1432</ele>
        <time>2020-07-12T19:12:51+02:00</time>
      </trkpt>
      <trkpt lat="44.77085" lon="5.4825">
        <ele>1432</ele>
        <time>2020-07-12T19:12:56+02:00</time>
      </trkpt>
      <trkpt lat="44.77084" lon="5.48238">
        <ele>1429</ele>
        <time>2020-07-12T19:13:01+02:00</time>
      </trkpt>
      <trkpt lat="44.77085" lon="5.48234">
        <ele>1428</ele>
        <time>2020-07-12T19:13:06+02:00</time>
      </trkpt>
      <trkpt lat="44.77082" lon="5.4823">
        <ele>1427</ele>
        <time>2020-07-12T19:13:11+02:00</time>
      </trkpt>
      <trkpt lat="44.77079" lon="5.48228">
        <ele>1427</ele>
        <time>2020-07-12T19:13:16+02:00</time>
      </trkpt>
      <trkpt lat="44.77074" lon="5.48228">
        <ele>1428</ele>
        <time>2020-07-12T19:13:21+02:00</time>
      </trkpt>
      <trkpt lat="44.77071" lon="5.48228">
        <ele>1428</ele>
        <time>2020-07-12T19:13:26+02:00</time>
      </trkpt>
      <trkpt lat="44.77069" lon="5.48223">
        <ele>1427</ele>
        <time>2020-07-12T19:13:31+02:00</time>
      </trkpt>
      <trkpt lat="44.77066" lon="5.48219">
        <ele>1426</ele>
        <time>2020-07-12T19:13:36+02:00</time>
      </trkpt>
      <trkpt lat="44.77062" lon="5.48213">
        <ele>1424</ele>
        <time>2020-07-12T19:13:41+02:00</time>
      </trkpt>
      <trkpt lat="44.77057" lon="5.48207">
        <ele>1422</ele>
        <time>2020-07-12T19:13:46+02:00</time>
      </trkpt>
      <trkpt lat="44.77053" lon="5.48204">
        <ele>1420</ele>
        <time>2020-07-12T19:13:51+02:00</time>
      </trkpt>
      <trkpt lat="44.77054" lon="5.48196">
        <ele>1417</ele>
        <time>2020-07-12T19:13:56+02:00</time>
      </trkpt>
      <trkpt lat="44.77057" lon="5.48197">
        <ele>1418</ele>
        <time>2020-07-12T19:14:01+02:00</time>
      </trkpt>
      <trkpt lat="44.77064" lon="5.48195">
        <ele>1418</ele>
        <time>2020-07-12T19:14:06+02:00</time>
      </trkpt>
      <trkpt lat="44.77064" lon="5.48189">
        <ele>1417</ele>
        <time>2020-07-12T19:14:11+02:00</time>
      </trkpt>
      <trkpt lat="44.77059" lon="5.48185">
        <ele>1415</ele>
        <time>2020-07-12T19:14:16+02:00</time>
      </trkpt>
      <trkpt lat="44.77056" lon="5.48181">
        <ele>1413</ele>
        <time>2020-07-12T19:14:21+02:00</time>
      </trkpt>
      <trkpt lat="44.77054" lon="5.48175">
        <ele>1411</ele>
        <time>2020-07-12T19:14:26+02:00</time>
      </trkpt>
      <trkpt lat="44.77057" lon="5.48163">
        <ele>1410</ele>
        <time>2020-07-12T19:14:31+02:00</time>
      </trkpt>
    </trkseg>
  </trk>
</gpx>